<?xml version="1.0" encoding="UTF-8" standalone="no" ?>
<gpx xmlns="http://www.topografix.com/GPX/1/1" xmlns:xsi="http://www.w3.org/2001/XMLSchema-instance" xsi:schemaLocation="http://www.topografix.com/GPX/1/1 http://www.topografix.com/GPX/1/1/gpx.xsd" version="1.1" creator="VisuGPX - https://www.visugpx.com">
  <metadata>
    <name>Luz / Luz Ardiden / Luz </name>
    <desc><![CDATA[Moyenne 7 Km/h temps 2H x2 (aller/retour)]]></desc>
  </metadata>
  <trk>
    <name><![CDATA[Luz St Sauveur / Luz Ardiden_1]]></name>
    <extensions>
      <line xmlns="http://www.topografix.com/GPX/gpx_style/0/2">
        <color>0000FF</color>
        <width>4</width>
      </line>
    </extensions>
    <trkseg>
      <trkpt lat="42.87185" lon="-0.00322">
        <ele>716</ele>
        <time>2024-07-25T22:00:00.000Z</time>
      </trkpt>
      <trkpt lat="42.87194" lon="-0.00328">
        <ele>715.4</ele>
        <time>2024-07-25T22:00:03.553Z</time>
      </trkpt>
      <trkpt lat="42.87217" lon="-0.00349">
        <ele>713.1</ele>
        <time>2024-07-25T22:00:13.371Z</time>
      </trkpt>
      <trkpt lat="42.87217" lon="-0.00378">
        <ele>711.5</ele>
        <time>2024-07-25T22:00:20.910Z</time>
      </trkpt>
      <trkpt lat="42.87219" lon="-0.00397">
        <ele>710.4</ele>
        <time>2024-07-25T22:00:25.900Z</time>
      </trkpt>
      <trkpt lat="42.87226" lon="-0.00436">
        <ele>707.6</ele>
        <time>2024-07-25T22:00:36.339Z</time>
      </trkpt>
      <trkpt lat="42.87237" lon="-0.00476">
        <ele>705.7</ele>
        <time>2024-07-25T22:00:47.447Z</time>
      </trkpt>
      <trkpt lat="42.87232" lon="-0.00485">
        <ele>705.1</ele>
        <time>2024-07-25T22:00:50.383Z</time>
        <extensions>
          <visugpx:TrkExtension xmlns:visugpx="https://www.visugpx.com/editgpx/">
            <visugpx:node>1</visugpx:node>
            </visugpx:TrkExtension>
        </extensions>
      </trkpt>
      <trkpt lat="42.87162" lon="-0.00594">
        <ele>700</ele>
        <time>2024-07-25T22:01:28.061Z</time>
      </trkpt>
      <trkpt lat="42.86958" lon="-0.00924">
        <ele>689.2</ele>
        <time>2024-07-25T22:03:23.795Z</time>
      </trkpt>
      <trkpt lat="42.86951" lon="-0.00935">
        <ele>688.4</ele>
        <time>2024-07-25T22:03:27.583Z</time>
      </trkpt>
      <trkpt lat="42.86932" lon="-0.00958">
        <ele>687</ele>
        <time>2024-07-25T22:03:36.593Z</time>
        <extensions>
          <visugpx:TrkExtension xmlns:visugpx="https://www.visugpx.com/editgpx/">
            <visugpx:node>2</visugpx:node>
            </visugpx:TrkExtension>
        </extensions>
      </trkpt>
      <trkpt lat="42.86923" lon="-0.00965">
        <ele>686.3</ele>
        <time>2024-07-25T22:03:40.268Z</time>
      </trkpt>
      <trkpt lat="42.86907" lon="-0.00971">
        <ele>684.9</ele>
        <time>2024-07-25T22:03:46.155Z</time>
      </trkpt>
      <trkpt lat="42.86825" lon="-0.00981">
        <ele>683</ele>
        <time>2024-07-25T22:04:17.274Z</time>
      </trkpt>
      <trkpt lat="42.86786" lon="-0.00988">
        <ele>683.1</ele>
        <time>2024-07-25T22:04:33.347Z</time>
        <extensions>
          <visugpx:TrkExtension xmlns:visugpx="https://www.visugpx.com/editgpx/">
            <visugpx:node>3</visugpx:node>
            </visugpx:TrkExtension>
        </extensions>
      </trkpt>
      <trkpt lat="42.8676" lon="-0.01051">
        <ele>677.1</ele>
        <time>2024-07-25T22:04:52.146Z</time>
        <extensions>
          <visugpx:TrkExtension xmlns:visugpx="https://www.visugpx.com/editgpx/">
            <visugpx:node>4</visugpx:node>
            </visugpx:TrkExtension>
        </extensions>
      </trkpt>
      <trkpt lat="42.86755" lon="-0.0107">
        <ele>678.6</ele>
        <time>2024-07-25T22:05:00.512Z</time>
      </trkpt>
      <trkpt lat="42.86752" lon="-0.01094">
        <ele>680.9</ele>
        <time>2024-07-25T22:05:11.639Z</time>
      </trkpt>
      <trkpt lat="42.86751" lon="-0.01118">
        <ele>684.1</ele>
        <time>2024-07-25T22:05:25.011Z</time>
      </trkpt>
      <trkpt lat="42.86754" lon="-0.01139">
        <ele>687</ele>
        <time>2024-07-25T22:05:37.065Z</time>
      </trkpt>
      <trkpt lat="42.86757" lon="-0.01149">
        <ele>688.1</ele>
        <time>2024-07-25T22:05:42.186Z</time>
      </trkpt>
      <trkpt lat="42.86766" lon="-0.01167">
        <ele>689</ele>
        <time>2024-07-25T22:05:49.936Z</time>
      </trkpt>
      <trkpt lat="42.86804" lon="-0.01225">
        <ele>689.8</ele>
        <time>2024-07-25T22:06:14.081Z</time>
      </trkpt>
      <trkpt lat="42.86807" lon="-0.01242">
        <ele>691.6</ele>
        <time>2024-07-25T22:06:22.416Z</time>
      </trkpt>
      <trkpt lat="42.86803" lon="-0.01258">
        <ele>694.5</ele>
        <time>2024-07-25T22:06:33.980Z</time>
      </trkpt>
      <trkpt lat="42.86805" lon="-0.01261">
        <ele>694.3</ele>
        <time>2024-07-25T22:06:35.034Z</time>
      </trkpt>
      <trkpt lat="42.86805" lon="-0.01266">
        <ele>694.9</ele>
        <time>2024-07-25T22:06:37.633Z</time>
      </trkpt>
      <trkpt lat="42.86803" lon="-0.01269">
        <ele>695.7</ele>
        <time>2024-07-25T22:06:40.835Z</time>
        <extensions>
          <visugpx:TrkExtension xmlns:visugpx="https://www.visugpx.com/editgpx/">
            <visugpx:node>5</visugpx:node>
            </visugpx:TrkExtension>
        </extensions>
      </trkpt>
      <trkpt lat="42.86797" lon="-0.01269">
        <ele>697.2</ele>
        <time>2024-07-25T22:06:46.810Z</time>
      </trkpt>
      <trkpt lat="42.86795" lon="-0.01262">
        <ele>697</ele>
        <time>2024-07-25T22:06:48.811Z</time>
      </trkpt>
      <trkpt lat="42.86783" lon="-0.01257">
        <ele>699.4</ele>
        <time>2024-07-25T22:06:58.696Z</time>
      </trkpt>
      <trkpt lat="42.86758" lon="-0.01217">
        <ele>699.5</ele>
        <time>2024-07-25T22:07:14.442Z</time>
      </trkpt>
      <trkpt lat="42.86752" lon="-0.01211">
        <ele>699.9</ele>
        <time>2024-07-25T22:07:18.021Z</time>
      </trkpt>
      <trkpt lat="42.86722" lon="-0.01194">
        <ele>703</ele>
        <time>2024-07-25T22:07:36.013Z</time>
      </trkpt>
      <trkpt lat="42.86689" lon="-0.01154">
        <ele>705.6</ele>
        <time>2024-07-25T22:07:57.614Z</time>
      </trkpt>
      <trkpt lat="42.86682" lon="-0.01149">
        <ele>706.2</ele>
        <time>2024-07-25T22:08:01.707Z</time>
      </trkpt>
      <trkpt lat="42.86675" lon="-0.01147">
        <ele>707.1</ele>
        <time>2024-07-25T22:08:06.118Z</time>
      </trkpt>
      <trkpt lat="42.86664" lon="-0.01147">
        <ele>709</ele>
        <time>2024-07-25T22:08:14.188Z</time>
      </trkpt>
      <trkpt lat="42.86663" lon="-0.01153">
        <ele>710.3</ele>
        <time>2024-07-25T22:08:19.448Z</time>
      </trkpt>
      <trkpt lat="42.86659" lon="-0.01154">
        <ele>711.4</ele>
        <time>2024-07-25T22:08:23.854Z</time>
      </trkpt>
      <trkpt lat="42.86657" lon="-0.01153">
        <ele>711.6</ele>
        <time>2024-07-25T22:08:25.028Z</time>
      </trkpt>
      <trkpt lat="42.86656" lon="-0.01147">
        <ele>710.4</ele>
        <time>2024-07-25T22:08:26.628Z</time>
        <extensions>
          <visugpx:TrkExtension xmlns:visugpx="https://www.visugpx.com/editgpx/">
            <visugpx:node>6</visugpx:node>
            </visugpx:TrkExtension>
        </extensions>
      </trkpt>
      <trkpt lat="42.86659" lon="-0.01144">
        <ele>709.2</ele>
        <time>2024-07-25T22:08:27.947Z</time>
      </trkpt>
      <trkpt lat="42.86663" lon="-0.01145">
        <ele>708.7</ele>
        <time>2024-07-25T22:08:29.390Z</time>
      </trkpt>
      <trkpt lat="42.86664" lon="-0.01147">
        <ele>709</ele>
        <time>2024-07-25T22:08:30.674Z</time>
      </trkpt>
      <trkpt lat="42.86663" lon="-0.01153">
        <ele>710.3</ele>
        <time>2024-07-25T22:08:35.934Z</time>
      </trkpt>
      <trkpt lat="42.86661" lon="-0.01154">
        <ele>711</ele>
        <time>2024-07-25T22:08:38.875Z</time>
      </trkpt>
      <trkpt lat="42.86661" lon="-0.01169">
        <ele>714.4</ele>
        <time>2024-07-25T22:08:52.874Z</time>
      </trkpt>
      <trkpt lat="42.86665" lon="-0.01177">
        <ele>715.6</ele>
        <time>2024-07-25T22:08:58.009Z</time>
      </trkpt>
      <trkpt lat="42.86714" lon="-0.01219">
        <ele>708.6</ele>
        <time>2024-07-25T22:09:18.537Z</time>
      </trkpt>
      <trkpt lat="42.86719" lon="-0.01225">
        <ele>708.2</ele>
        <time>2024-07-25T22:09:20.899Z</time>
      </trkpt>
      <trkpt lat="42.86726" lon="-0.01257">
        <ele>711.2</ele>
        <time>2024-07-25T22:09:35.817Z</time>
      </trkpt>
      <trkpt lat="42.86732" lon="-0.01276">
        <ele>712.6</ele>
        <time>2024-07-25T22:09:44.126Z</time>
      </trkpt>
      <trkpt lat="42.86735" lon="-0.01283">
        <ele>713.4</ele>
        <time>2024-07-25T22:09:47.909Z</time>
      </trkpt>
      <trkpt lat="42.86747" lon="-0.01298">
        <ele>714</ele>
        <time>2024-07-25T22:09:55.320Z</time>
      </trkpt>
      <trkpt lat="42.86764" lon="-0.01314">
        <ele>715.2</ele>
        <time>2024-07-25T22:10:05.400Z</time>
      </trkpt>
      <trkpt lat="42.86783" lon="-0.01328">
        <ele>716.4</ele>
        <time>2024-07-25T22:10:15.851Z</time>
      </trkpt>
      <trkpt lat="42.86812" lon="-0.01338">
        <ele>716.1</ele>
        <time>2024-07-25T22:10:27.611Z</time>
      </trkpt>
      <trkpt lat="42.86836" lon="-0.01344">
        <ele>715.6</ele>
        <time>2024-07-25T22:10:36.906Z</time>
      </trkpt>
      <trkpt lat="42.86844" lon="-0.01349">
        <ele>716.6</ele>
        <time>2024-07-25T22:10:42.101Z</time>
      </trkpt>
      <trkpt lat="42.86855" lon="-0.01353">
        <ele>716.5</ele>
        <time>2024-07-25T22:10:46.594Z</time>
      </trkpt>
      <trkpt lat="42.86864" lon="-0.0136">
        <ele>717.9</ele>
        <time>2024-07-25T22:10:53.201Z</time>
      </trkpt>
      <trkpt lat="42.86887" lon="-0.01383">
        <ele>720.6</ele>
        <time>2024-07-25T22:11:08.955Z</time>
      </trkpt>
      <trkpt lat="42.86899" lon="-0.01392">
        <ele>720.4</ele>
        <time>2024-07-25T22:11:14.264Z</time>
      </trkpt>
      <trkpt lat="42.86908" lon="-0.01402">
        <ele>721.1</ele>
        <time>2024-07-25T22:11:19.971Z</time>
      </trkpt>
      <trkpt lat="42.86941" lon="-0.0145">
        <ele>726.1</ele>
        <time>2024-07-25T22:11:47.464Z</time>
      </trkpt>
      <trkpt lat="42.8699" lon="-0.01509">
        <ele>734.8</ele>
        <time>2024-07-25T22:12:28.842Z</time>
      </trkpt>
      <trkpt lat="42.87005" lon="-0.0152">
        <ele>735.3</ele>
        <time>2024-07-25T22:12:36.412Z</time>
      </trkpt>
      <trkpt lat="42.87042" lon="-0.01541">
        <ele>733.3</ele>
        <time>2024-07-25T22:12:50.628Z</time>
        <extensions>
          <visugpx:TrkExtension xmlns:visugpx="https://www.visugpx.com/editgpx/">
            <visugpx:node>7</visugpx:node>
            </visugpx:TrkExtension>
        </extensions>
      </trkpt>
      <trkpt lat="42.87051" lon="-0.01547">
        <ele>732.9</ele>
        <time>2024-07-25T22:12:54.230Z</time>
      </trkpt>
      <trkpt lat="42.8718" lon="-0.01681">
        <ele>744.2</ele>
        <time>2024-07-25T22:14:16.476Z</time>
      </trkpt>
      <trkpt lat="42.87264" lon="-0.01755">
        <ele>749.6</ele>
        <time>2024-07-25T22:15:04.620Z</time>
      </trkpt>
      <trkpt lat="42.8735" lon="-0.01823">
        <ele>762</ele>
        <time>2024-07-25T22:16:05.678Z</time>
      </trkpt>
      <trkpt lat="42.87377" lon="-0.01847">
        <ele>766.2</ele>
        <time>2024-07-25T22:16:25.876Z</time>
      </trkpt>
      <trkpt lat="42.87387" lon="-0.01854">
        <ele>766.6</ele>
        <time>2024-07-25T22:16:30.973Z</time>
      </trkpt>
      <trkpt lat="42.87414" lon="-0.01864">
        <ele>762.6</ele>
        <time>2024-07-25T22:16:40.897Z</time>
      </trkpt>
      <trkpt lat="42.87437" lon="-0.01878">
        <ele>762.7</ele>
        <time>2024-07-25T22:16:51.234Z</time>
      </trkpt>
      <trkpt lat="42.87451" lon="-0.01892">
        <ele>765.3</ele>
        <time>2024-07-25T22:17:02.917Z</time>
        <extensions>
          <visugpx:TrkExtension xmlns:visugpx="https://www.visugpx.com/editgpx/">
            <visugpx:node>8</visugpx:node>
            </visugpx:TrkExtension>
        </extensions>
      </trkpt>
      <trkpt lat="42.87469" lon="-0.01912">
        <ele>769.7</ele>
        <time>2024-07-25T22:17:21.082Z</time>
      </trkpt>
      <trkpt lat="42.87498" lon="-0.01929">
        <ele>767.5</ele>
        <time>2024-07-25T22:17:32.278Z</time>
      </trkpt>
      <trkpt lat="42.87538" lon="-0.01973">
        <ele>775.4</ele>
        <time>2024-07-25T22:18:07.374Z</time>
      </trkpt>
      <trkpt lat="42.87552" lon="-0.01978">
        <ele>772.9</ele>
        <time>2024-07-25T22:18:12.507Z</time>
      </trkpt>
      <trkpt lat="42.87604" lon="-0.01988">
        <ele>770.3</ele>
        <time>2024-07-25T22:18:31.136Z</time>
      </trkpt>
      <trkpt lat="42.87624" lon="-0.01995">
        <ele>771.2</ele>
        <time>2024-07-25T22:18:40.745Z</time>
      </trkpt>
      <trkpt lat="42.8766" lon="-0.02011">
        <ele>773.3</ele>
        <time>2024-07-25T22:18:59.063Z</time>
      </trkpt>
      <trkpt lat="42.87706" lon="-0.02049">
        <ele>784</ele>
        <time>2024-07-25T22:19:42.716Z</time>
      </trkpt>
      <trkpt lat="42.87717" lon="-0.02052">
        <ele>784.6</ele>
        <time>2024-07-25T22:19:48.108Z</time>
      </trkpt>
      <trkpt lat="42.87725" lon="-0.02051">
        <ele>783.7</ele>
        <time>2024-07-25T22:19:50.958Z</time>
      </trkpt>
      <trkpt lat="42.87734" lon="-0.02047">
        <ele>781.7</ele>
        <time>2024-07-25T22:19:54.316Z</time>
      </trkpt>
      <trkpt lat="42.87742" lon="-0.02038">
        <ele>777.2</ele>
        <time>2024-07-25T22:19:57.994Z</time>
      </trkpt>
      <trkpt lat="42.8775" lon="-0.02034">
        <ele>775.1</ele>
        <time>2024-07-25T22:20:01.016Z</time>
      </trkpt>
      <trkpt lat="42.8776" lon="-0.02035">
        <ele>776.4</ele>
        <time>2024-07-25T22:20:07.285Z</time>
      </trkpt>
      <trkpt lat="42.87787" lon="-0.02052">
        <ele>786.7</ele>
        <time>2024-07-25T22:20:51.458Z</time>
        <extensions>
          <visugpx:TrkExtension xmlns:visugpx="https://www.visugpx.com/editgpx/">
            <visugpx:node>9</visugpx:node>
            </visugpx:TrkExtension>
        </extensions>
      </trkpt>
      <trkpt lat="42.87796" lon="-0.02052">
        <ele>787.1</ele>
        <time>2024-07-25T22:20:55.658Z</time>
      </trkpt>
      <trkpt lat="42.87811" lon="-0.02044">
        <ele>784.6</ele>
        <time>2024-07-25T22:21:01.371Z</time>
      </trkpt>
      <trkpt lat="42.87818" lon="-0.02042">
        <ele>784.1</ele>
        <time>2024-07-25T22:21:03.909Z</time>
      </trkpt>
      <trkpt lat="42.87826" lon="-0.02042">
        <ele>784.4</ele>
        <time>2024-07-25T22:21:07.559Z</time>
      </trkpt>
      <trkpt lat="42.87859" lon="-0.02067">
        <ele>788.4</ele>
        <time>2024-07-25T22:21:29.248Z</time>
      </trkpt>
      <trkpt lat="42.87904" lon="-0.02095">
        <ele>791</ele>
        <time>2024-07-25T22:21:52.949Z</time>
      </trkpt>
      <trkpt lat="42.87941" lon="-0.02123">
        <ele>794.4</ele>
        <time>2024-07-25T22:22:15.200Z</time>
      </trkpt>
      <trkpt lat="42.87953" lon="-0.02137">
        <ele>796.4</ele>
        <time>2024-07-25T22:22:24.966Z</time>
      </trkpt>
      <trkpt lat="42.87976" lon="-0.02178">
        <ele>804.3</ele>
        <time>2024-07-25T22:22:56.889Z</time>
      </trkpt>
      <trkpt lat="42.88005" lon="-0.02197">
        <ele>799</ele>
        <time>2024-07-25T22:23:08.301Z</time>
      </trkpt>
      <trkpt lat="42.88037" lon="-0.02237">
        <ele>809.7</ele>
        <time>2024-07-25T22:23:50.914Z</time>
        <extensions>
          <visugpx:TrkExtension xmlns:visugpx="https://www.visugpx.com/editgpx/">
            <visugpx:node>10</visugpx:node>
            </visugpx:TrkExtension>
        </extensions>
      </trkpt>
      <trkpt lat="42.88041" lon="-0.0224">
        <ele>811.2</ele>
        <time>2024-07-25T22:23:57.215Z</time>
      </trkpt>
      <trkpt lat="42.88052" lon="-0.02241">
        <ele>812.2</ele>
        <time>2024-07-25T22:24:03.222Z</time>
      </trkpt>
      <trkpt lat="42.88058" lon="-0.02235">
        <ele>811.2</ele>
        <time>2024-07-25T22:24:05.861Z</time>
      </trkpt>
      <trkpt lat="42.88067" lon="-0.02204">
        <ele>805.8</ele>
        <time>2024-07-25T22:24:14.529Z</time>
      </trkpt>
      <trkpt lat="42.88072" lon="-0.022">
        <ele>806.5</ele>
        <time>2024-07-25T22:24:18.039Z</time>
      </trkpt>
      <trkpt lat="42.88082" lon="-0.02195">
        <ele>808.7</ele>
        <time>2024-07-25T22:24:26.946Z</time>
      </trkpt>
      <trkpt lat="42.88111" lon="-0.02188">
        <ele>809.8</ele>
        <time>2024-07-25T22:24:40.377Z</time>
      </trkpt>
      <trkpt lat="42.88141" lon="-0.02166">
        <ele>812.3</ele>
        <time>2024-07-25T22:24:57.871Z</time>
      </trkpt>
      <trkpt lat="42.88157" lon="-0.02149">
        <ele>812.9</ele>
        <time>2024-07-25T22:25:06.891Z</time>
      </trkpt>
      <trkpt lat="42.88172" lon="-0.02141">
        <ele>813.3</ele>
        <time>2024-07-25T22:25:13.947Z</time>
      </trkpt>
      <trkpt lat="42.8818" lon="-0.0214">
        <ele>813.2</ele>
        <time>2024-07-25T22:25:17.083Z</time>
      </trkpt>
      <trkpt lat="42.88185" lon="-0.02142">
        <ele>813.6</ele>
        <time>2024-07-25T22:25:19.790Z</time>
      </trkpt>
      <trkpt lat="42.88192" lon="-0.02155">
        <ele>816.4</ele>
        <time>2024-07-25T22:25:30.949Z</time>
      </trkpt>
      <trkpt lat="42.88205" lon="-0.02201">
        <ele>820.7</ele>
        <time>2024-07-25T22:25:52.691Z</time>
      </trkpt>
      <trkpt lat="42.88208" lon="-0.02231">
        <ele>822.8</ele>
        <time>2024-07-25T22:26:04.946Z</time>
        <extensions>
          <visugpx:TrkExtension xmlns:visugpx="https://www.visugpx.com/editgpx/">
            <visugpx:node>11</visugpx:node>
            </visugpx:TrkExtension>
        </extensions>
      </trkpt>
      <trkpt lat="42.88212" lon="-0.02269">
        <ele>826.7</ele>
        <time>2024-07-25T22:26:23.119Z</time>
      </trkpt>
      <trkpt lat="42.88205" lon="-0.02275">
        <ele>827.9</ele>
        <time>2024-07-25T22:26:28.589Z</time>
      </trkpt>
      <trkpt lat="42.88196" lon="-0.02277">
        <ele>828.8</ele>
        <time>2024-07-25T22:26:33.697Z</time>
      </trkpt>
      <trkpt lat="42.88106" lon="-0.0228">
        <ele>830.2</ele>
        <time>2024-07-25T22:27:12.003Z</time>
      </trkpt>
      <trkpt lat="42.88069" lon="-0.02284">
        <ele>827.5</ele>
        <time>2024-07-25T22:27:25.170Z</time>
      </trkpt>
      <trkpt lat="42.88061" lon="-0.02289">
        <ele>828</ele>
        <time>2024-07-25T22:27:29.446Z</time>
      </trkpt>
      <trkpt lat="42.8806" lon="-0.02299">
        <ele>830.8</ele>
        <time>2024-07-25T22:27:41.951Z</time>
      </trkpt>
      <trkpt lat="42.88061" lon="-0.023">
        <ele>831.4</ele>
        <time>2024-07-25T22:27:44.590Z</time>
        <extensions>
          <visugpx:TrkExtension xmlns:visugpx="https://www.visugpx.com/editgpx/">
            <visugpx:node>12</visugpx:node>
            </visugpx:TrkExtension>
        </extensions>
      </trkpt>
      <trkpt lat="42.88066" lon="-0.02304">
        <ele>833.4</ele>
        <time>2024-07-25T22:27:53.153Z</time>
      </trkpt>
      <trkpt lat="42.88077" lon="-0.02307">
        <ele>836.3</ele>
        <time>2024-07-25T22:28:04.722Z</time>
      </trkpt>
      <trkpt lat="42.88088" lon="-0.02306">
        <ele>837.5</ele>
        <time>2024-07-25T22:28:11.121Z</time>
      </trkpt>
      <trkpt lat="42.88097" lon="-0.02308">
        <ele>838.8</ele>
        <time>2024-07-25T22:28:17.097Z</time>
      </trkpt>
      <trkpt lat="42.88183" lon="-0.0235">
        <ele>846.9</ele>
        <time>2024-07-25T22:29:06.522Z</time>
      </trkpt>
      <trkpt lat="42.88192" lon="-0.02356">
        <ele>847</ele>
        <time>2024-07-25T22:29:10.710Z</time>
      </trkpt>
      <trkpt lat="42.88199" lon="-0.02366">
        <ele>848.4</ele>
        <time>2024-07-25T22:29:17.245Z</time>
      </trkpt>
      <trkpt lat="42.88212" lon="-0.02395">
        <ele>854</ele>
        <time>2024-07-25T22:29:39.645Z</time>
      </trkpt>
      <trkpt lat="42.88211" lon="-0.024">
        <ele>855.6</ele>
        <time>2024-07-25T22:29:47.160Z</time>
        <extensions>
          <visugpx:TrkExtension xmlns:visugpx="https://www.visugpx.com/editgpx/">
            <visugpx:node>13</visugpx:node>
            </visugpx:TrkExtension>
        </extensions>
      </trkpt>
      <trkpt lat="42.88205" lon="-0.02404">
        <ele>858.1</ele>
        <time>2024-07-25T22:29:58.265Z</time>
      </trkpt>
      <trkpt lat="42.882" lon="-0.024">
        <ele>858</ele>
        <time>2024-07-25T22:30:00.495Z</time>
      </trkpt>
      <trkpt lat="42.88189" lon="-0.02385">
        <ele>856</ele>
        <time>2024-07-25T22:30:06.011Z</time>
      </trkpt>
      <trkpt lat="42.8818" lon="-0.02381">
        <ele>856.7</ele>
        <time>2024-07-25T22:30:10.882Z</time>
      </trkpt>
      <trkpt lat="42.88149" lon="-0.02376">
        <ele>861</ele>
        <time>2024-07-25T22:30:30.983Z</time>
      </trkpt>
      <trkpt lat="42.88141" lon="-0.02377">
        <ele>862.8</ele>
        <time>2024-07-25T22:30:38.185Z</time>
      </trkpt>
      <trkpt lat="42.88137" lon="-0.02383">
        <ele>865.3</ele>
        <time>2024-07-25T22:30:49.919Z</time>
      </trkpt>
      <trkpt lat="42.88136" lon="-0.0239">
        <ele>867.7</ele>
        <time>2024-07-25T22:31:01.042Z</time>
      </trkpt>
      <trkpt lat="42.88142" lon="-0.02395">
        <ele>868.6</ele>
        <time>2024-07-25T22:31:05.412Z</time>
      </trkpt>
      <trkpt lat="42.88166" lon="-0.024">
        <ele>865.7</ele>
        <time>2024-07-25T22:31:14.024Z</time>
      </trkpt>
      <trkpt lat="42.88177" lon="-0.02409">
        <ele>866</ele>
        <time>2024-07-25T22:31:19.618Z</time>
      </trkpt>
      <trkpt lat="42.88182" lon="-0.02424">
        <ele>869.8</ele>
        <time>2024-07-25T22:31:35.347Z</time>
      </trkpt>
      <trkpt lat="42.8822" lon="-0.02458">
        <ele>872.5</ele>
        <time>2024-07-25T22:31:57.621Z</time>
      </trkpt>
      <trkpt lat="42.88237" lon="-0.0248">
        <ele>874.8</ele>
        <time>2024-07-25T22:32:10.721Z</time>
      </trkpt>
      <trkpt lat="42.88258" lon="-0.02522">
        <ele>879.9</ele>
        <time>2024-07-25T22:32:34.636Z</time>
      </trkpt>
      <trkpt lat="42.88322" lon="-0.02617">
        <ele>890.4</ele>
        <time>2024-07-25T22:33:29.953Z</time>
      </trkpt>
      <trkpt lat="42.88346" lon="-0.02659">
        <ele>893.5</ele>
        <time>2024-07-25T22:33:50.413Z</time>
      </trkpt>
      <trkpt lat="42.88353" lon="-0.02668">
        <ele>893.2</ele>
        <time>2024-07-25T22:33:53.961Z</time>
        <extensions>
          <visugpx:TrkExtension xmlns:visugpx="https://www.visugpx.com/editgpx/">
            <visugpx:node>14</visugpx:node>
            </visugpx:TrkExtension>
        </extensions>
      </trkpt>
      <trkpt lat="42.8837" lon="-0.02685">
        <ele>890.4</ele>
        <time>2024-07-25T22:34:01.438Z</time>
      </trkpt>
      <trkpt lat="42.88374" lon="-0.02695">
        <ele>891</ele>
        <time>2024-07-25T22:34:05.704Z</time>
      </trkpt>
      <trkpt lat="42.88376" lon="-0.02707">
        <ele>892.6</ele>
        <time>2024-07-25T22:34:12.439Z</time>
      </trkpt>
      <trkpt lat="42.88377" lon="-0.02734">
        <ele>897.6</ele>
        <time>2024-07-25T22:34:32.361Z</time>
      </trkpt>
      <trkpt lat="42.88383" lon="-0.02749">
        <ele>898.7</ele>
        <time>2024-07-25T22:34:39.117Z</time>
      </trkpt>
      <trkpt lat="42.88404" lon="-0.02767">
        <ele>897.3</ele>
        <time>2024-07-25T22:34:47.914Z</time>
      </trkpt>
      <trkpt lat="42.88438" lon="-0.02821">
        <ele>907.8</ele>
        <time>2024-07-25T22:35:30.646Z</time>
      </trkpt>
      <trkpt lat="42.88461" lon="-0.02852">
        <ele>908.4</ele>
        <time>2024-07-25T22:35:44.531Z</time>
      </trkpt>
      <trkpt lat="42.88482" lon="-0.02873">
        <ele>905.8</ele>
        <time>2024-07-25T22:35:53.766Z</time>
      </trkpt>
      <trkpt lat="42.88506" lon="-0.02894">
        <ele>905.8</ele>
        <time>2024-07-25T22:36:05.325Z</time>
      </trkpt>
      <trkpt lat="42.88529" lon="-0.02924">
        <ele>914</ele>
        <time>2024-07-25T22:36:38.028Z</time>
      </trkpt>
      <trkpt lat="42.88567" lon="-0.03002">
        <ele>932.5</ele>
        <time>2024-07-25T22:37:52.101Z</time>
      </trkpt>
      <trkpt lat="42.88578" lon="-0.03013">
        <ele>933.3</ele>
        <time>2024-07-25T22:37:58.769Z</time>
      </trkpt>
      <trkpt lat="42.88589" lon="-0.0302">
        <ele>933.2</ele>
        <time>2024-07-25T22:38:03.567Z</time>
        <extensions>
          <visugpx:TrkExtension xmlns:visugpx="https://www.visugpx.com/editgpx/">
            <visugpx:node>15</visugpx:node>
            </visugpx:TrkExtension>
        </extensions>
      </trkpt>
      <trkpt lat="42.88618" lon="-0.03039">
        <ele>935.6</ele>
        <time>2024-07-25T22:38:20.158Z</time>
      </trkpt>
      <trkpt lat="42.88634" lon="-0.03041">
        <ele>934.4</ele>
        <time>2024-07-25T22:38:25.857Z</time>
      </trkpt>
      <trkpt lat="42.8868" lon="-0.03032">
        <ele>928.8</ele>
        <time>2024-07-25T22:38:42.342Z</time>
      </trkpt>
      <trkpt lat="42.88688" lon="-0.03036">
        <ele>929.7</ele>
        <time>2024-07-25T22:38:47.232Z</time>
      </trkpt>
      <trkpt lat="42.8869" lon="-0.0305">
        <ele>933.7</ele>
        <time>2024-07-25T22:39:05.190Z</time>
      </trkpt>
      <trkpt lat="42.88686" lon="-0.03065">
        <ele>938.4</ele>
        <time>2024-07-25T22:39:26.793Z</time>
      </trkpt>
      <trkpt lat="42.88678" lon="-0.03072">
        <ele>941.3</ele>
        <time>2024-07-25T22:39:38.689Z</time>
      </trkpt>
      <trkpt lat="42.88631" lon="-0.0307">
        <ele>945.6</ele>
        <time>2024-07-25T22:40:04.376Z</time>
      </trkpt>
      <trkpt lat="42.88588" lon="-0.03075">
        <ele>957.8</ele>
        <time>2024-07-25T22:40:53.564Z</time>
      </trkpt>
      <trkpt lat="42.88577" lon="-0.03069">
        <ele>958.3</ele>
        <time>2024-07-25T22:40:59.052Z</time>
      </trkpt>
      <trkpt lat="42.88568" lon="-0.03071">
        <ele>962.2</ele>
        <time>2024-07-25T22:41:17.486Z</time>
        <extensions>
          <visugpx:TrkExtension xmlns:visugpx="https://www.visugpx.com/editgpx/">
            <visugpx:node>16</visugpx:node>
            </visugpx:TrkExtension>
        </extensions>
      </trkpt>
      <trkpt lat="42.88566" lon="-0.03083">
        <ele>968.5</ele>
        <time>2024-07-25T22:41:36.679Z</time>
      </trkpt>
      <trkpt lat="42.88571" lon="-0.03091">
        <ele>970.3</ele>
        <time>2024-07-25T22:41:43.857Z</time>
      </trkpt>
      <trkpt lat="42.88632" lon="-0.0309">
        <ele>952.9</ele>
        <time>2024-07-25T22:42:05.498Z</time>
      </trkpt>
      <trkpt lat="42.8864" lon="-0.03093">
        <ele>952.4</ele>
        <time>2024-07-25T22:42:08.441Z</time>
      </trkpt>
      <trkpt lat="42.88683" lon="-0.03133">
        <ele>960.2</ele>
        <time>2024-07-25T22:42:43.480Z</time>
      </trkpt>
      <trkpt lat="42.88723" lon="-0.03159">
        <ele>961</ele>
        <time>2024-07-25T22:43:02.481Z</time>
      </trkpt>
      <trkpt lat="42.88731" lon="-0.03168">
        <ele>962.1</ele>
        <time>2024-07-25T22:43:08.441Z</time>
      </trkpt>
      <trkpt lat="42.88746" lon="-0.03201">
        <ele>968.1</ele>
        <time>2024-07-25T22:43:32.645Z</time>
      </trkpt>
      <trkpt lat="42.8876" lon="-0.03216">
        <ele>969.7</ele>
        <time>2024-07-25T22:43:42.317Z</time>
      </trkpt>
      <trkpt lat="42.8877" lon="-0.0322">
        <ele>969.4</ele>
        <time>2024-07-25T22:43:46.189Z</time>
      </trkpt>
      <trkpt lat="42.88815" lon="-0.03199">
        <ele>970.3</ele>
        <time>2024-07-25T22:44:06.641Z</time>
      </trkpt>
      <trkpt lat="42.88822" lon="-0.03199">
        <ele>971.5</ele>
        <time>2024-07-25T22:44:11.751Z</time>
      </trkpt>
      <trkpt lat="42.88825" lon="-0.03201">
        <ele>972.2</ele>
        <time>2024-07-25T22:44:14.577Z</time>
        <extensions>
          <visugpx:TrkExtension xmlns:visugpx="https://www.visugpx.com/editgpx/">
            <visugpx:node>17</visugpx:node>
            </visugpx:TrkExtension>
        </extensions>
      </trkpt>
      <trkpt lat="42.88831" lon="-0.0322">
        <ele>975.4</ele>
        <time>2024-07-25T22:44:27.484Z</time>
      </trkpt>
      <trkpt lat="42.88829" lon="-0.0323">
        <ele>976.6</ele>
        <time>2024-07-25T22:44:32.755Z</time>
      </trkpt>
      <trkpt lat="42.88822" lon="-0.03237">
        <ele>976.9</ele>
        <time>2024-07-25T22:44:36.677Z</time>
      </trkpt>
      <trkpt lat="42.88799" lon="-0.03246">
        <ele>976.6</ele>
        <time>2024-07-25T22:44:46.013Z</time>
      </trkpt>
      <trkpt lat="42.88788" lon="-0.03268">
        <ele>981.4</ele>
        <time>2024-07-25T22:45:05.129Z</time>
      </trkpt>
      <trkpt lat="42.8878" lon="-0.03272">
        <ele>982.4</ele>
        <time>2024-07-25T22:45:10.226Z</time>
      </trkpt>
      <trkpt lat="42.8877" lon="-0.03272">
        <ele>983.7</ele>
        <time>2024-07-25T22:45:16.487Z</time>
      </trkpt>
      <trkpt lat="42.88717" lon="-0.03239">
        <ele>985.7</ele>
        <time>2024-07-25T22:45:42.797Z</time>
      </trkpt>
      <trkpt lat="42.88705" lon="-0.03238">
        <ele>988.2</ele>
        <time>2024-07-25T22:45:52.907Z</time>
      </trkpt>
      <trkpt lat="42.8867" lon="-0.03245">
        <ele>996.6</ele>
        <time>2024-07-25T22:46:26.381Z</time>
      </trkpt>
      <trkpt lat="42.88656" lon="-0.03246">
        <ele>999.7</ele>
        <time>2024-07-25T22:46:38.803Z</time>
      </trkpt>
      <trkpt lat="42.88645" lon="-0.03239">
        <ele>999.3</ele>
        <time>2024-07-25T22:46:43.258Z</time>
      </trkpt>
      <trkpt lat="42.88634" lon="-0.03235">
        <ele>1000.4</ele>
        <time>2024-07-25T22:46:49.589Z</time>
      </trkpt>
      <trkpt lat="42.88625" lon="-0.03237">
        <ele>1003.6</ele>
        <time>2024-07-25T22:47:03.390Z</time>
      </trkpt>
      <trkpt lat="42.88623" lon="-0.03244">
        <ele>1006.8</ele>
        <time>2024-07-25T22:47:15.107Z</time>
      </trkpt>
      <trkpt lat="42.88624" lon="-0.03248">
        <ele>1007.8</ele>
        <time>2024-07-25T22:47:19.281Z</time>
        <extensions>
          <visugpx:TrkExtension xmlns:visugpx="https://www.visugpx.com/editgpx/">
            <visugpx:node>18</visugpx:node>
            </visugpx:TrkExtension>
        </extensions>
      </trkpt>
      <trkpt lat="42.88625" lon="-0.03252">
        <ele>1009.2</ele>
        <time>2024-07-25T22:47:25.873Z</time>
      </trkpt>
      <trkpt lat="42.88694" lon="-0.03285">
        <ele>1006.4</ele>
        <time>2024-07-25T22:47:52.291Z</time>
      </trkpt>
      <trkpt lat="42.88709" lon="-0.03298">
        <ele>1006.7</ele>
        <time>2024-07-25T22:47:59.883Z</time>
      </trkpt>
      <trkpt lat="42.88733" lon="-0.03343">
        <ele>1012.6</ele>
        <time>2024-07-25T22:48:26.818Z</time>
      </trkpt>
      <trkpt lat="42.88748" lon="-0.03367">
        <ele>1012.9</ele>
        <time>2024-07-25T22:48:36.574Z</time>
      </trkpt>
      <trkpt lat="42.88757" lon="-0.03378">
        <ele>1012.6</ele>
        <time>2024-07-25T22:48:41.117Z</time>
      </trkpt>
      <trkpt lat="42.88776" lon="-0.03392">
        <ele>1010.3</ele>
        <time>2024-07-25T22:48:48.777Z</time>
      </trkpt>
      <trkpt lat="42.88777" lon="-0.03396">
        <ele>1010.8</ele>
        <time>2024-07-25T22:48:50.954Z</time>
        <extensions>
          <visugpx:TrkExtension xmlns:visugpx="https://www.visugpx.com/editgpx/">
            <visugpx:node>19</visugpx:node>
            </visugpx:TrkExtension>
        </extensions>
      </trkpt>
      <trkpt lat="42.88779" lon="-0.034">
        <ele>1011.8</ele>
        <time>2024-07-25T22:48:54.983Z</time>
      </trkpt>
      <trkpt lat="42.88778" lon="-0.03407">
        <ele>1013.6</ele>
        <time>2024-07-25T22:49:02.685Z</time>
      </trkpt>
      <trkpt lat="42.88771" lon="-0.03411">
        <ele>1016.5</ele>
        <time>2024-07-25T22:49:15.695Z</time>
      </trkpt>
      <trkpt lat="42.88763" lon="-0.03407">
        <ele>1017.8</ele>
        <time>2024-07-25T22:49:21.489Z</time>
      </trkpt>
      <trkpt lat="42.88735" lon="-0.0338">
        <ele>1020.3</ele>
        <time>2024-07-25T22:49:39.071Z</time>
      </trkpt>
      <trkpt lat="42.8872" lon="-0.0337">
        <ele>1022.9</ele>
        <time>2024-07-25T22:49:50.558Z</time>
      </trkpt>
      <trkpt lat="42.88708" lon="-0.03365">
        <ele>1025.1</ele>
        <time>2024-07-25T22:49:59.855Z</time>
      </trkpt>
      <trkpt lat="42.8869" lon="-0.03361">
        <ele>1029.3</ele>
        <time>2024-07-25T22:50:16.620Z</time>
      </trkpt>
      <trkpt lat="42.88666" lon="-0.03353">
        <ele>1033.8</ele>
        <time>2024-07-25T22:50:35.409Z</time>
      </trkpt>
      <trkpt lat="42.88627" lon="-0.03332">
        <ele>1037</ele>
        <time>2024-07-25T22:50:57.158Z</time>
      </trkpt>
      <trkpt lat="42.88585" lon="-0.03302">
        <ele>1039.3</ele>
        <time>2024-07-25T22:51:19.576Z</time>
      </trkpt>
      <trkpt lat="42.88549" lon="-0.0327">
        <ele>1040.9</ele>
        <time>2024-07-25T22:51:39.162Z</time>
      </trkpt>
      <trkpt lat="42.8854" lon="-0.0327">
        <ele>1043.5</ele>
        <time>2024-07-25T22:51:49.688Z</time>
      </trkpt>
      <trkpt lat="42.88534" lon="-0.03276">
        <ele>1046.8</ele>
        <time>2024-07-25T22:52:05.499Z</time>
      </trkpt>
      <trkpt lat="42.88534" lon="-0.03283">
        <ele>1048.6</ele>
        <time>2024-07-25T22:52:13.262Z</time>
        <extensions>
          <visugpx:TrkExtension xmlns:visugpx="https://www.visugpx.com/editgpx/">
            <visugpx:node>20</visugpx:node>
            </visugpx:TrkExtension>
        </extensions>
      </trkpt>
      <trkpt lat="42.88538" lon="-0.03295">
        <ele>1051.2</ele>
        <time>2024-07-25T22:52:23.670Z</time>
      </trkpt>
      <trkpt lat="42.88595" lon="-0.03344">
        <ele>1050.8</ele>
        <time>2024-07-25T22:52:50.488Z</time>
      </trkpt>
      <trkpt lat="42.88608" lon="-0.03364">
        <ele>1053.9</ele>
        <time>2024-07-25T22:53:04.095Z</time>
      </trkpt>
      <trkpt lat="42.88637" lon="-0.03419">
        <ele>1062.4</ele>
        <time>2024-07-25T22:53:40.308Z</time>
      </trkpt>
      <trkpt lat="42.88655" lon="-0.03461">
        <ele>1067.4</ele>
        <time>2024-07-25T22:54:03.475Z</time>
      </trkpt>
      <trkpt lat="42.88703" lon="-0.03552">
        <ele>1075.8</ele>
        <time>2024-07-25T22:54:50.071Z</time>
      </trkpt>
      <trkpt lat="42.88716" lon="-0.03568">
        <ele>1078</ele>
        <time>2024-07-25T22:55:00.860Z</time>
      </trkpt>
      <trkpt lat="42.88766" lon="-0.03614">
        <ele>1082.5</ele>
        <time>2024-07-25T22:55:31.962Z</time>
      </trkpt>
      <trkpt lat="42.88788" lon="-0.03638">
        <ele>1085.9</ele>
        <time>2024-07-25T22:55:49.015Z</time>
      </trkpt>
      <trkpt lat="42.88806" lon="-0.03654">
        <ele>1088.5</ele>
        <time>2024-07-25T22:56:02.036Z</time>
        <extensions>
          <visugpx:TrkExtension xmlns:visugpx="https://www.visugpx.com/editgpx/">
            <visugpx:node>21</visugpx:node>
            </visugpx:TrkExtension>
        </extensions>
      </trkpt>
      <trkpt lat="42.88819" lon="-0.0366">
        <ele>1090.6</ele>
        <time>2024-07-25T22:56:11.384Z</time>
      </trkpt>
      <trkpt lat="42.88831" lon="-0.03661">
        <ele>1091</ele>
        <time>2024-07-25T22:56:16.796Z</time>
      </trkpt>
      <trkpt lat="42.88846" lon="-0.03659">
        <ele>1092.2</ele>
        <time>2024-07-25T22:56:24.702Z</time>
      </trkpt>
      <trkpt lat="42.8886" lon="-0.03655">
        <ele>1093</ele>
        <time>2024-07-25T22:56:31.633Z</time>
      </trkpt>
      <trkpt lat="42.88875" lon="-0.03645">
        <ele>1093</ele>
        <time>2024-07-25T22:56:38.401Z</time>
      </trkpt>
      <trkpt lat="42.88925" lon="-0.03629">
        <ele>1098.3</ele>
        <time>2024-07-25T22:57:07.626Z</time>
      </trkpt>
      <trkpt lat="42.88966" lon="-0.03612">
        <ele>1099.4</ele>
        <time>2024-07-25T22:57:26.451Z</time>
      </trkpt>
      <trkpt lat="42.88975" lon="-0.0361">
        <ele>1099.9</ele>
        <time>2024-07-25T22:57:30.853Z</time>
      </trkpt>
      <trkpt lat="42.89012" lon="-0.0361">
        <ele>1104.4</ele>
        <time>2024-07-25T22:57:53.328Z</time>
        <extensions>
          <visugpx:TrkExtension xmlns:visugpx="https://www.visugpx.com/editgpx/">
            <visugpx:node>22</visugpx:node>
            </visugpx:TrkExtension>
        </extensions>
      </trkpt>
      <trkpt lat="42.89064" lon="-0.03618">
        <ele>1111.9</ele>
        <time>2024-07-25T22:58:27.720Z</time>
      </trkpt>
      <trkpt lat="42.891" lon="-0.03618">
        <ele>1116.2</ele>
        <time>2024-07-25T22:58:49.417Z</time>
      </trkpt>
      <trkpt lat="42.89144" lon="-0.03615">
        <ele>1120.7</ele>
        <time>2024-07-25T22:59:14.395Z</time>
      </trkpt>
      <trkpt lat="42.89167" lon="-0.03618">
        <ele>1124.5</ele>
        <time>2024-07-25T22:59:30.823Z</time>
      </trkpt>
      <trkpt lat="42.89186" lon="-0.03623">
        <ele>1127.4</ele>
        <time>2024-07-25T22:59:43.851Z</time>
      </trkpt>
      <trkpt lat="42.89212" lon="-0.03633">
        <ele>1130.2</ele>
        <time>2024-07-25T22:59:59.248Z</time>
      </trkpt>
      <trkpt lat="42.89264" lon="-0.03649">
        <ele>1133.4</ele>
        <time>2024-07-25T23:00:25.430Z</time>
      </trkpt>
      <trkpt lat="42.89277" lon="-0.03656">
        <ele>1134.3</ele>
        <time>2024-07-25T23:00:32.395Z</time>
      </trkpt>
      <trkpt lat="42.89283" lon="-0.03662">
        <ele>1135.5</ele>
        <time>2024-07-25T23:00:37.622Z</time>
        <extensions>
          <visugpx:TrkExtension xmlns:visugpx="https://www.visugpx.com/editgpx/">
            <visugpx:node>23</visugpx:node>
            </visugpx:TrkExtension>
        </extensions>
      </trkpt>
      <trkpt lat="42.89289" lon="-0.0367">
        <ele>1137.6</ele>
        <time>2024-07-25T23:00:45.987Z</time>
      </trkpt>
      <trkpt lat="42.8929" lon="-0.03676">
        <ele>1139.6</ele>
        <time>2024-07-25T23:00:55.569Z</time>
      </trkpt>
      <trkpt lat="42.89289" lon="-0.03679">
        <ele>1140.7</ele>
        <time>2024-07-25T23:01:00.709Z</time>
      </trkpt>
      <trkpt lat="42.89283" lon="-0.03683">
        <ele>1142.8</ele>
        <time>2024-07-25T23:01:09.399Z</time>
      </trkpt>
      <trkpt lat="42.89273" lon="-0.03684">
        <ele>1143.9</ele>
        <time>2024-07-25T23:01:15.237Z</time>
      </trkpt>
      <trkpt lat="42.89248" lon="-0.0368">
        <ele>1144.3</ele>
        <time>2024-07-25T23:01:25.959Z</time>
      </trkpt>
      <trkpt lat="42.89238" lon="-0.0368">
        <ele>1144.1</ele>
        <time>2024-07-25T23:01:29.774Z</time>
      </trkpt>
      <trkpt lat="42.89231" lon="-0.03682">
        <ele>1144.6</ele>
        <time>2024-07-25T23:01:33.405Z</time>
      </trkpt>
      <trkpt lat="42.89138" lon="-0.03747">
        <ele>1154.2</ele>
        <time>2024-07-25T23:02:30.568Z</time>
      </trkpt>
      <trkpt lat="42.89087" lon="-0.0378">
        <ele>1161.2</ele>
        <time>2024-07-25T23:03:05.149Z</time>
      </trkpt>
      <trkpt lat="42.89025" lon="-0.03811">
        <ele>1167.9</ele>
        <time>2024-07-25T23:03:42.497Z</time>
      </trkpt>
      <trkpt lat="42.88951" lon="-0.03842">
        <ele>1170.8</ele>
        <time>2024-07-25T23:04:17.812Z</time>
      </trkpt>
      <trkpt lat="42.88941" lon="-0.03849">
        <ele>1171.6</ele>
        <time>2024-07-25T23:04:23.542Z</time>
      </trkpt>
      <trkpt lat="42.88937" lon="-0.0386">
        <ele>1174.6</ele>
        <time>2024-07-25T23:04:36.212Z</time>
        <extensions>
          <visugpx:TrkExtension xmlns:visugpx="https://www.visugpx.com/editgpx/">
            <visugpx:node>24</visugpx:node>
            </visugpx:TrkExtension>
        </extensions>
      </trkpt>
      <trkpt lat="42.8894" lon="-0.03865">
        <ele>1176.6</ele>
        <time>2024-07-25T23:04:45.616Z</time>
      </trkpt>
      <trkpt lat="42.88947" lon="-0.03867">
        <ele>1178.3</ele>
        <time>2024-07-25T23:04:52.390Z</time>
      </trkpt>
      <trkpt lat="42.88983" lon="-0.03855">
        <ele>1179.5</ele>
        <time>2024-07-25T23:05:09.023Z</time>
      </trkpt>
      <trkpt lat="42.89024" lon="-0.03858">
        <ele>1187</ele>
        <time>2024-07-25T23:05:40.311Z</time>
      </trkpt>
      <trkpt lat="42.89104" lon="-0.03847">
        <ele>1192.3</ele>
        <time>2024-07-25T23:06:20.586Z</time>
      </trkpt>
      <trkpt lat="42.89171" lon="-0.03867">
        <ele>1198.5</ele>
        <time>2024-07-25T23:06:57.917Z</time>
      </trkpt>
      <trkpt lat="42.892" lon="-0.03874">
        <ele>1201.6</ele>
        <time>2024-07-25T23:07:14.798Z</time>
      </trkpt>
      <trkpt lat="42.89222" lon="-0.03874">
        <ele>1203.6</ele>
        <time>2024-07-25T23:07:26.794Z</time>
      </trkpt>
      <trkpt lat="42.89263" lon="-0.0387">
        <ele>1208.1</ele>
        <time>2024-07-25T23:07:50.707Z</time>
      </trkpt>
      <trkpt lat="42.89279" lon="-0.0387">
        <ele>1210.4</ele>
        <time>2024-07-25T23:08:01.239Z</time>
      </trkpt>
      <trkpt lat="42.89308" lon="-0.03876">
        <ele>1216.5</ele>
        <time>2024-07-25T23:08:25.906Z</time>
      </trkpt>
      <trkpt lat="42.89338" lon="-0.0389">
        <ele>1222.9</ele>
        <time>2024-07-25T23:08:51.936Z</time>
      </trkpt>
      <trkpt lat="42.89408" lon="-0.03933">
        <ele>1227.9</ele>
        <time>2024-07-25T23:09:30.286Z</time>
      </trkpt>
      <trkpt lat="42.89431" lon="-0.03943">
        <ele>1226.8</ele>
        <time>2024-07-25T23:09:38.849Z</time>
      </trkpt>
      <trkpt lat="42.89469" lon="-0.03972">
        <ele>1229.7</ele>
        <time>2024-07-25T23:10:00.707Z</time>
      </trkpt>
      <trkpt lat="42.89564" lon="-0.04074">
        <ele>1245.6</ele>
        <time>2024-07-25T23:11:16.800Z</time>
      </trkpt>
      <trkpt lat="42.89593" lon="-0.04102">
        <ele>1249.9</ele>
        <time>2024-07-25T23:11:38.333Z</time>
      </trkpt>
      <trkpt lat="42.89612" lon="-0.04118">
        <ele>1251.5</ele>
        <time>2024-07-25T23:11:49.734Z</time>
      </trkpt>
      <trkpt lat="42.89668" lon="-0.04154">
        <ele>1258.8</ele>
        <time>2024-07-25T23:12:26.841Z</time>
      </trkpt>
      <trkpt lat="42.89676" lon="-0.04162">
        <ele>1260.6</ele>
        <time>2024-07-25T23:12:34.364Z</time>
      </trkpt>
      <trkpt lat="42.89685" lon="-0.04181">
        <ele>1262.2</ele>
        <time>2024-07-25T23:12:43.580Z</time>
      </trkpt>
      <trkpt lat="42.89688" lon="-0.04195">
        <ele>1262.5</ele>
        <time>2024-07-25T23:12:48.311Z</time>
        <extensions>
          <visugpx:TrkExtension xmlns:visugpx="https://www.visugpx.com/editgpx/">
            <visugpx:node>25</visugpx:node>
            </visugpx:TrkExtension>
        </extensions>
      </trkpt>
      <trkpt lat="42.89688" lon="-0.04214">
        <ele>1263.7</ele>
        <time>2024-07-25T23:12:55.779Z</time>
      </trkpt>
      <trkpt lat="42.89682" lon="-0.04226">
        <ele>1264.5</ele>
        <time>2024-07-25T23:13:01.278Z</time>
      </trkpt>
      <trkpt lat="42.89657" lon="-0.0425">
        <ele>1267.4</ele>
        <time>2024-07-25T23:13:18.174Z</time>
      </trkpt>
      <trkpt lat="42.89648" lon="-0.0426">
        <ele>1269.4</ele>
        <time>2024-07-25T23:13:26.675Z</time>
      </trkpt>
      <trkpt lat="42.89644" lon="-0.04268">
        <ele>1270.6</ele>
        <time>2024-07-25T23:13:31.810Z</time>
      </trkpt>
      <trkpt lat="42.89638" lon="-0.04288">
        <ele>1272.6</ele>
        <time>2024-07-25T23:13:41.591Z</time>
      </trkpt>
      <trkpt lat="42.89638" lon="-0.04311">
        <ele>1273.4</ele>
        <time>2024-07-25T23:13:49.532Z</time>
      </trkpt>
      <trkpt lat="42.89649" lon="-0.04372">
        <ele>1274.9</ele>
        <time>2024-07-25T23:14:10.202Z</time>
      </trkpt>
      <trkpt lat="42.89666" lon="-0.04435">
        <ele>1277.2</ele>
        <time>2024-07-25T23:14:33.328Z</time>
      </trkpt>
      <trkpt lat="42.89704" lon="-0.04515">
        <ele>1280.8</ele>
        <time>2024-07-25T23:15:06.688Z</time>
      </trkpt>
      <trkpt lat="42.89708" lon="-0.04527">
        <ele>1281.5</ele>
        <time>2024-07-25T23:15:11.634Z</time>
      </trkpt>
      <trkpt lat="42.89713" lon="-0.04549">
        <ele>1281.8</ele>
        <time>2024-07-25T23:15:18.864Z</time>
      </trkpt>
      <trkpt lat="42.89713" lon="-0.04561">
        <ele>1282.5</ele>
        <time>2024-07-25T23:15:23.476Z</time>
      </trkpt>
      <trkpt lat="42.89711" lon="-0.04569">
        <ele>1283.5</ele>
        <time>2024-07-25T23:15:27.830Z</time>
      </trkpt>
      <trkpt lat="42.89706" lon="-0.04572">
        <ele>1285.4</ele>
        <time>2024-07-25T23:15:35.993Z</time>
      </trkpt>
      <trkpt lat="42.89701" lon="-0.0457">
        <ele>1287</ele>
        <time>2024-07-25T23:15:42.568Z</time>
        <extensions>
          <visugpx:TrkExtension xmlns:visugpx="https://www.visugpx.com/editgpx/">
            <visugpx:node>26</visugpx:node>
            </visugpx:TrkExtension>
        </extensions>
      </trkpt>
      <trkpt lat="42.89697" lon="-0.04561">
        <ele>1288.3</ele>
        <time>2024-07-25T23:15:48.137Z</time>
      </trkpt>
      <trkpt lat="42.89692" lon="-0.04533">
        <ele>1287.3</ele>
        <time>2024-07-25T23:15:55.626Z</time>
      </trkpt>
      <trkpt lat="42.89687" lon="-0.04518">
        <ele>1286.4</ele>
        <time>2024-07-25T23:15:59.909Z</time>
      </trkpt>
      <trkpt lat="42.8968" lon="-0.04506">
        <ele>1286.2</ele>
        <time>2024-07-25T23:16:04.225Z</time>
      </trkpt>
      <trkpt lat="42.89649" lon="-0.04471">
        <ele>1288.5</ele>
        <time>2024-07-25T23:16:23.798Z</time>
      </trkpt>
      <trkpt lat="42.89637" lon="-0.04454">
        <ele>1289.4</ele>
        <time>2024-07-25T23:16:32.072Z</time>
      </trkpt>
      <trkpt lat="42.89625" lon="-0.04435">
        <ele>1290.6</ele>
        <time>2024-07-25T23:16:41.259Z</time>
      </trkpt>
      <trkpt lat="42.89611" lon="-0.04399">
        <ele>1289.9</ele>
        <time>2024-07-25T23:16:52.533Z</time>
      </trkpt>
      <trkpt lat="42.89603" lon="-0.04398">
        <ele>1292.8</ele>
        <time>2024-07-25T23:17:05.198Z</time>
        <extensions>
          <visugpx:TrkExtension xmlns:visugpx="https://www.visugpx.com/editgpx/">
            <visugpx:node>27</visugpx:node>
            </visugpx:TrkExtension>
        </extensions>
      </trkpt>
      <trkpt lat="42.89599" lon="-0.04403">
        <ele>1295.1</ele>
        <time>2024-07-25T23:17:16.030Z</time>
      </trkpt>
      <trkpt lat="42.89598" lon="-0.04407">
        <ele>1296.1</ele>
        <time>2024-07-25T23:17:20.205Z</time>
      </trkpt>
      <trkpt lat="42.896" lon="-0.04417">
        <ele>1297</ele>
        <time>2024-07-25T23:17:24.767Z</time>
      </trkpt>
      <trkpt lat="42.8963" lon="-0.04471">
        <ele>1295</ele>
        <time>2024-07-25T23:17:42.602Z</time>
      </trkpt>
      <trkpt lat="42.89643" lon="-0.04513">
        <ele>1298.6</ele>
        <time>2024-07-25T23:18:01.918Z</time>
      </trkpt>
      <trkpt lat="42.89663" lon="-0.046">
        <ele>1302.9</ele>
        <time>2024-07-25T23:18:35.206Z</time>
      </trkpt>
      <trkpt lat="42.89663" lon="-0.04608">
        <ele>1303.2</ele>
        <time>2024-07-25T23:18:38.002Z</time>
      </trkpt>
      <trkpt lat="42.89658" lon="-0.04615">
        <ele>1305.3</ele>
        <time>2024-07-25T23:18:46.531Z</time>
      </trkpt>
      <trkpt lat="42.89653" lon="-0.04615">
        <ele>1307.1</ele>
        <time>2024-07-25T23:18:54.382Z</time>
      </trkpt>
      <trkpt lat="42.89649" lon="-0.04611">
        <ele>1308.4</ele>
        <time>2024-07-25T23:18:59.573Z</time>
        <extensions>
          <visugpx:TrkExtension xmlns:visugpx="https://www.visugpx.com/editgpx/">
            <visugpx:node>28</visugpx:node>
            </visugpx:TrkExtension>
        </extensions>
      </trkpt>
      <trkpt lat="42.89645" lon="-0.04602">
        <ele>1309.2</ele>
        <time>2024-07-25T23:19:03.970Z</time>
      </trkpt>
      <trkpt lat="42.89636" lon="-0.04566">
        <ele>1309.1</ele>
        <time>2024-07-25T23:19:15.143Z</time>
      </trkpt>
      <trkpt lat="42.89617" lon="-0.04528">
        <ele>1310.1</ele>
        <time>2024-07-25T23:19:30.140Z</time>
      </trkpt>
      <trkpt lat="42.896" lon="-0.04501">
        <ele>1310.8</ele>
        <time>2024-07-25T23:19:41.641Z</time>
      </trkpt>
      <trkpt lat="42.89556" lon="-0.04464">
        <ele>1319</ele>
        <time>2024-07-25T23:20:17.595Z</time>
      </trkpt>
      <trkpt lat="42.89534" lon="-0.04431">
        <ele>1322.4</ele>
        <time>2024-07-25T23:20:36.249Z</time>
      </trkpt>
      <trkpt lat="42.89508" lon="-0.04386">
        <ele>1326</ele>
        <time>2024-07-25T23:20:58.740Z</time>
      </trkpt>
      <trkpt lat="42.89495" lon="-0.04371">
        <ele>1327.4</ele>
        <time>2024-07-25T23:21:07.750Z</time>
      </trkpt>
      <trkpt lat="42.89481" lon="-0.04362">
        <ele>1329.2</ele>
        <time>2024-07-25T23:21:16.974Z</time>
      </trkpt>
      <trkpt lat="42.89468" lon="-0.04357">
        <ele>1330.3</ele>
        <time>2024-07-25T23:21:24.103Z</time>
      </trkpt>
      <trkpt lat="42.89452" lon="-0.04356">
        <ele>1331.8</ele>
        <time>2024-07-25T23:21:32.920Z</time>
        <extensions>
          <visugpx:TrkExtension xmlns:visugpx="https://www.visugpx.com/editgpx/">
            <visugpx:node>29</visugpx:node>
            </visugpx:TrkExtension>
        </extensions>
      </trkpt>
      <trkpt lat="42.89434" lon="-0.04359">
        <ele>1333.4</ele>
        <time>2024-07-25T23:21:42.717Z</time>
      </trkpt>
      <trkpt lat="42.89425" lon="-0.04365">
        <ele>1334.5</ele>
        <time>2024-07-25T23:21:48.551Z</time>
      </trkpt>
      <trkpt lat="42.89408" lon="-0.04379">
        <ele>1336.5</ele>
        <time>2024-07-25T23:21:59.752Z</time>
      </trkpt>
      <trkpt lat="42.89388" lon="-0.04392">
        <ele>1338.5</ele>
        <time>2024-07-25T23:22:11.805Z</time>
      </trkpt>
      <trkpt lat="42.89357" lon="-0.04421">
        <ele>1343.8</ele>
        <time>2024-07-25T23:22:36.297Z</time>
      </trkpt>
      <trkpt lat="42.8935" lon="-0.04425">
        <ele>1344.7</ele>
        <time>2024-07-25T23:22:40.857Z</time>
      </trkpt>
      <trkpt lat="42.89313" lon="-0.04424">
        <ele>1346.4</ele>
        <time>2024-07-25T23:22:58.211Z</time>
      </trkpt>
      <trkpt lat="42.89291" lon="-0.04421">
        <ele>1347.7</ele>
        <time>2024-07-25T23:23:09.026Z</time>
      </trkpt>
      <trkpt lat="42.8927" lon="-0.04406">
        <ele>1346.6</ele>
        <time>2024-07-25T23:23:17.434Z</time>
      </trkpt>
      <trkpt lat="42.89262" lon="-0.04403">
        <ele>1347.1</ele>
        <time>2024-07-25T23:23:21.513Z</time>
      </trkpt>
      <trkpt lat="42.89254" lon="-0.04404">
        <ele>1348.7</ele>
        <time>2024-07-25T23:23:28.039Z</time>
      </trkpt>
      <trkpt lat="42.8925" lon="-0.04409">
        <ele>1350.8</ele>
        <time>2024-07-25T23:23:37.520Z</time>
        <extensions>
          <visugpx:TrkExtension xmlns:visugpx="https://www.visugpx.com/editgpx/">
            <visugpx:node>30</visugpx:node>
            </visugpx:TrkExtension>
        </extensions>
      </trkpt>
      <trkpt lat="42.89249" lon="-0.04415">
        <ele>1352.7</ele>
        <time>2024-07-25T23:23:46.445Z</time>
      </trkpt>
      <trkpt lat="42.89253" lon="-0.04422">
        <ele>1354.3</ele>
        <time>2024-07-25T23:23:52.817Z</time>
      </trkpt>
      <trkpt lat="42.89285" lon="-0.0444">
        <ele>1353.7</ele>
        <time>2024-07-25T23:24:06.128Z</time>
      </trkpt>
      <trkpt lat="42.89337" lon="-0.04477">
        <ele>1356.1</ele>
        <time>2024-07-25T23:24:33.182Z</time>
      </trkpt>
      <trkpt lat="42.89364" lon="-0.0452">
        <ele>1364.9</ele>
        <time>2024-07-25T23:25:08.649Z</time>
      </trkpt>
      <trkpt lat="42.89372" lon="-0.0453">
        <ele>1366.4</ele>
        <time>2024-07-25T23:25:15.647Z</time>
      </trkpt>
      <trkpt lat="42.89416" lon="-0.04563">
        <ele>1367</ele>
        <time>2024-07-25T23:25:36.770Z</time>
      </trkpt>
      <trkpt lat="42.89426" lon="-0.04573">
        <ele>1367.5</ele>
        <time>2024-07-25T23:25:42.478Z</time>
      </trkpt>
      <trkpt lat="42.89431" lon="-0.04581">
        <ele>1368.4</ele>
        <time>2024-07-25T23:25:47.078Z</time>
      </trkpt>
      <trkpt lat="42.89437" lon="-0.046">
        <ele>1370.9</ele>
        <time>2024-07-25T23:25:57.875Z</time>
      </trkpt>
      <trkpt lat="42.89441" lon="-0.04628">
        <ele>1374.6</ele>
        <time>2024-07-25T23:26:13.461Z</time>
      </trkpt>
      <trkpt lat="42.89441" lon="-0.04656">
        <ele>1378.9</ele>
        <time>2024-07-25T23:26:30.825Z</time>
      </trkpt>
      <trkpt lat="42.89444" lon="-0.04673">
        <ele>1380.3</ele>
        <time>2024-07-25T23:26:38.272Z</time>
      </trkpt>
      <trkpt lat="42.89475" lon="-0.04741">
        <ele>1380.4</ele>
        <time>2024-07-25T23:27:02.186Z</time>
      </trkpt>
      <trkpt lat="42.89498" lon="-0.04786">
        <ele>1379.1</ele>
        <time>2024-07-25T23:27:16.967Z</time>
      </trkpt>
      <trkpt lat="42.89503" lon="-0.04806">
        <ele>1381.4</ele>
        <time>2024-07-25T23:27:27.341Z</time>
        <extensions>
          <visugpx:TrkExtension xmlns:visugpx="https://www.visugpx.com/editgpx/">
            <visugpx:node>31</visugpx:node>
            </visugpx:TrkExtension>
        </extensions>
      </trkpt>
      <trkpt lat="42.89504" lon="-0.04827">
        <ele>1383.9</ele>
        <time>2024-07-25T23:27:38.208Z</time>
      </trkpt>
      <trkpt lat="42.8949" lon="-0.04882">
        <ele>1392.4</ele>
        <time>2024-07-25T23:28:12.875Z</time>
      </trkpt>
      <trkpt lat="42.89482" lon="-0.04899">
        <ele>1394.2</ele>
        <time>2024-07-25T23:28:21.865Z</time>
      </trkpt>
      <trkpt lat="42.89474" lon="-0.04909">
        <ele>1396.6</ele>
        <time>2024-07-25T23:28:31.482Z</time>
      </trkpt>
      <trkpt lat="42.89459" lon="-0.04934">
        <ele>1399.4</ele>
        <time>2024-07-25T23:28:45.691Z</time>
      </trkpt>
      <trkpt lat="42.89439" lon="-0.04977">
        <ele>1399.9</ele>
        <time>2024-07-25T23:29:01.462Z</time>
      </trkpt>
      <trkpt lat="42.89362" lon="-0.0509">
        <ele>1409.2</ele>
        <time>2024-07-25T23:30:01.307Z</time>
      </trkpt>
      <trkpt lat="42.89346" lon="-0.05107">
        <ele>1410.9</ele>
        <time>2024-07-25T23:30:12.098Z</time>
      </trkpt>
      <trkpt lat="42.89324" lon="-0.05118">
        <ele>1415</ele>
        <time>2024-07-25T23:30:29.435Z</time>
        <extensions>
          <visugpx:TrkExtension xmlns:visugpx="https://www.visugpx.com/editgpx/">
            <visugpx:node>32</visugpx:node>
            </visugpx:TrkExtension>
        </extensions>
      </trkpt>
      <trkpt lat="42.89281" lon="-0.05139">
        <ele>1423.8</ele>
        <time>2024-07-25T23:31:05.611Z</time>
      </trkpt>
      <trkpt lat="42.89268" lon="-0.05153">
        <ele>1424.8</ele>
        <time>2024-07-25T23:31:13.754Z</time>
      </trkpt>
      <trkpt lat="42.8923" lon="-0.05213">
        <ele>1426.1</ele>
        <time>2024-07-25T23:31:39.016Z</time>
      </trkpt>
      <trkpt lat="42.89218" lon="-0.05238">
        <ele>1427.3</ele>
        <time>2024-07-25T23:31:49.586Z</time>
      </trkpt>
      <trkpt lat="42.89211" lon="-0.0526">
        <ele>1427.6</ele>
        <time>2024-07-25T23:31:57.099Z</time>
      </trkpt>
      <trkpt lat="42.892" lon="-0.05277">
        <ele>1430.1</ele>
        <time>2024-07-25T23:32:08.311Z</time>
      </trkpt>
      <trkpt lat="42.89188" lon="-0.0529">
        <ele>1433.2</ele>
        <time>2024-07-25T23:32:20.913Z</time>
      </trkpt>
      <trkpt lat="42.89145" lon="-0.05321">
        <ele>1440.2</ele>
        <time>2024-07-25T23:32:52.946Z</time>
      </trkpt>
      <trkpt lat="42.89117" lon="-0.05349">
        <ele>1442.6</ele>
        <time>2024-07-25T23:33:10.522Z</time>
      </trkpt>
      <trkpt lat="42.8911" lon="-0.05357">
        <ele>1442.4</ele>
        <time>2024-07-25T23:33:13.985Z</time>
      </trkpt>
      <trkpt lat="42.8911" lon="-0.05361">
        <ele>1442.2</ele>
        <time>2024-07-25T23:33:15.025Z</time>
        <extensions>
          <visugpx:TrkExtension xmlns:visugpx="https://www.visugpx.com/editgpx/">
            <visugpx:node>33</visugpx:node>
            </visugpx:TrkExtension>
        </extensions>
      </trkpt>
      <trkpt lat="42.8911" lon="-0.05377">
        <ele>1443.2</ele>
        <time>2024-07-25T23:33:21.295Z</time>
      </trkpt>
      <trkpt lat="42.89118" lon="-0.05384">
        <ele>1444.3</ele>
        <time>2024-07-25T23:33:26.947Z</time>
      </trkpt>
      <trkpt lat="42.89199" lon="-0.05381">
        <ele>1447</ele>
        <time>2024-07-25T23:34:03.426Z</time>
        <extensions>
          <visugpx:TrkExtension xmlns:visugpx="https://www.visugpx.com/editgpx/">
            <visugpx:node>34</visugpx:node>
            </visugpx:TrkExtension>
        </extensions>
      </trkpt>
      <trkpt lat="42.89205" lon="-0.05383">
        <ele>1447.4</ele>
        <time>2024-07-25T23:34:06.508Z</time>
      </trkpt>
      <trkpt lat="42.89207" lon="-0.05391">
        <ele>1449.3</ele>
        <time>2024-07-25T23:34:14.313Z</time>
      </trkpt>
      <trkpt lat="42.89205" lon="-0.05399">
        <ele>1450.7</ele>
        <time>2024-07-25T23:34:19.910Z</time>
      </trkpt>
      <trkpt lat="42.892" lon="-0.05403">
        <ele>1451.4</ele>
        <time>2024-07-25T23:34:23.420Z</time>
      </trkpt>
      <trkpt lat="42.89176" lon="-0.05407">
        <ele>1451.8</ele>
        <time>2024-07-25T23:34:33.740Z</time>
      </trkpt>
      <trkpt lat="42.89161" lon="-0.05417">
        <ele>1452.9</ele>
        <time>2024-07-25T23:34:42.101Z</time>
      </trkpt>
      <trkpt lat="42.89141" lon="-0.05434">
        <ele>1455.2</ele>
        <time>2024-07-25T23:34:55.250Z</time>
      </trkpt>
      <trkpt lat="42.8912" lon="-0.05459">
        <ele>1457.4</ele>
        <time>2024-07-25T23:35:09.835Z</time>
      </trkpt>
      <trkpt lat="42.89105" lon="-0.05474">
        <ele>1459.1</ele>
        <time>2024-07-25T23:35:19.992Z</time>
      </trkpt>
      <trkpt lat="42.89082" lon="-0.0549">
        <ele>1461.1</ele>
        <time>2024-07-25T23:35:33.436Z</time>
      </trkpt>
      <trkpt lat="42.89056" lon="-0.05515">
        <ele>1464.3</ele>
        <time>2024-07-25T23:35:51.372Z</time>
      </trkpt>
      <trkpt lat="42.89039" lon="-0.05535">
        <ele>1466.8</ele>
        <time>2024-07-25T23:36:04.517Z</time>
      </trkpt>
      <trkpt lat="42.89005" lon="-0.05588">
        <ele>1472.9</ele>
        <time>2024-07-25T23:36:35.486Z</time>
      </trkpt>
      <trkpt lat="42.88989" lon="-0.05609">
        <ele>1474.9</ele>
        <time>2024-07-25T23:36:47.556Z</time>
      </trkpt>
      <trkpt lat="42.88972" lon="-0.05627">
        <ele>1477</ele>
        <time>2024-07-25T23:36:59.563Z</time>
      </trkpt>
      <trkpt lat="42.88949" lon="-0.05642">
        <ele>1479.1</ele>
        <time>2024-07-25T23:37:13.062Z</time>
      </trkpt>
      <trkpt lat="42.88925" lon="-0.05654">
        <ele>1481.4</ele>
        <time>2024-07-25T23:37:26.955Z</time>
      </trkpt>
      <trkpt lat="42.88892" lon="-0.05658">
        <ele>1483</ele>
        <time>2024-07-25T23:37:42.610Z</time>
      </trkpt>
      <trkpt lat="42.88885" lon="-0.05664">
        <ele>1484.7</ele>
        <time>2024-07-25T23:37:49.499Z</time>
      </trkpt>
      <trkpt lat="42.88882" lon="-0.05671">
        <ele>1486.6</ele>
        <time>2024-07-25T23:37:57.404Z</time>
        <extensions>
          <visugpx:TrkExtension xmlns:visugpx="https://www.visugpx.com/editgpx/">
            <visugpx:node>35</visugpx:node>
            </visugpx:TrkExtension>
        </extensions>
      </trkpt>
      <trkpt lat="42.88884" lon="-0.05679">
        <ele>1488.5</ele>
        <time>2024-07-25T23:38:05.209Z</time>
      </trkpt>
      <trkpt lat="42.8889" lon="-0.05684">
        <ele>1489.4</ele>
        <time>2024-07-25T23:38:09.579Z</time>
      </trkpt>
      <trkpt lat="42.88903" lon="-0.05688">
        <ele>1490.3</ele>
        <time>2024-07-25T23:38:16.290Z</time>
      </trkpt>
      <trkpt lat="42.88936" lon="-0.0569">
        <ele>1492.6</ele>
        <time>2024-07-25T23:38:33.044Z</time>
      </trkpt>
      <trkpt lat="42.88953" lon="-0.05689">
        <ele>1494.3</ele>
        <time>2024-07-25T23:38:42.616Z</time>
      </trkpt>
      <trkpt lat="42.89054" lon="-0.05661">
        <ele>1502.1</ele>
        <time>2024-07-25T23:39:35.964Z</time>
      </trkpt>
      <trkpt lat="42.89076" lon="-0.05658">
        <ele>1504.2</ele>
        <time>2024-07-25T23:39:48.191Z</time>
      </trkpt>
      <trkpt lat="42.8912" lon="-0.0566">
        <ele>1510.2</ele>
        <time>2024-07-25T23:40:16.389Z</time>
      </trkpt>
      <trkpt lat="42.89133" lon="-0.05658">
        <ele>1511.6</ele>
        <time>2024-07-25T23:40:23.934Z</time>
      </trkpt>
      <trkpt lat="42.89144" lon="-0.05655">
        <ele>1512.9</ele>
        <time>2024-07-25T23:40:30.610Z</time>
      </trkpt>
      <trkpt lat="42.89167" lon="-0.05643">
        <ele>1514.3</ele>
        <time>2024-07-25T23:40:42.578Z</time>
      </trkpt>
      <trkpt lat="42.89174" lon="-0.05641">
        <ele>1513.7</ele>
        <time>2024-07-25T23:40:45.115Z</time>
      </trkpt>
      <trkpt lat="42.89187" lon="-0.05642">
        <ele>1514.1</ele>
        <time>2024-07-25T23:40:50.928Z</time>
      </trkpt>
      <trkpt lat="42.89199" lon="-0.05646">
        <ele>1515.3</ele>
        <time>2024-07-25T23:40:57.810Z</time>
      </trkpt>
      <trkpt lat="42.89208" lon="-0.05653">
        <ele>1517.4</ele>
        <time>2024-07-25T23:41:06.344Z</time>
      </trkpt>
      <trkpt lat="42.8922" lon="-0.05657">
        <ele>1518.3</ele>
        <time>2024-07-25T23:41:12.677Z</time>
      </trkpt>
      <trkpt lat="42.89234" lon="-0.05656">
        <ele>1521.2</ele>
        <time>2024-07-25T23:41:24.415Z</time>
      </trkpt>
      <trkpt lat="42.8926" lon="-0.05626">
        <ele>1520</ele>
        <time>2024-07-25T23:41:36.828Z</time>
      </trkpt>
      <trkpt lat="42.89272" lon="-0.05617">
        <ele>1521</ele>
        <time>2024-07-25T23:41:43.852Z</time>
      </trkpt>
      <trkpt lat="42.89285" lon="-0.0561">
        <ele>1521.6</ele>
        <time>2024-07-25T23:41:50.342Z</time>
      </trkpt>
      <trkpt lat="42.89298" lon="-0.05605">
        <ele>1521.4</ele>
        <time>2024-07-25T23:41:55.576Z</time>
      </trkpt>
      <trkpt lat="42.89309" lon="-0.05603">
        <ele>1521.8</ele>
        <time>2024-07-25T23:42:00.615Z</time>
      </trkpt>
      <trkpt lat="42.89327" lon="-0.05606">
        <ele>1523.6</ele>
        <time>2024-07-25T23:42:10.794Z</time>
        <extensions>
          <visugpx:TrkExtension xmlns:visugpx="https://www.visugpx.com/editgpx/">
            <visugpx:node>36</visugpx:node>
            </visugpx:TrkExtension>
        </extensions>
      </trkpt>
      <trkpt lat="42.89329" lon="-0.05607">
        <ele>1524</ele>
        <time>2024-07-25T23:42:12.449Z</time>
      </trkpt>
      <trkpt lat="42.89328" lon="-0.05622">
        <ele>1530.9</ele>
        <time>2024-07-25T23:42:35.936Z</time>
      </trkpt>
      <trkpt lat="42.89306" lon="-0.05619">
        <ele>1528.7</ele>
        <time>2024-07-25T23:42:43.779Z</time>
      </trkpt>
      <trkpt lat="42.893" lon="-0.0562">
        <ele>1528.2</ele>
        <time>2024-07-25T23:42:45.924Z</time>
      </trkpt>
      <trkpt lat="42.89286" lon="-0.0563">
        <ele>1529.6</ele>
        <time>2024-07-25T23:42:54.471Z</time>
      </trkpt>
      <trkpt lat="42.89273" lon="-0.05643">
        <ele>1530.8</ele>
        <time>2024-07-25T23:43:02.779Z</time>
      </trkpt>
      <trkpt lat="42.89264" lon="-0.05654">
        <ele>1531.2</ele>
        <time>2024-07-25T23:43:08.214Z</time>
      </trkpt>
      <trkpt lat="42.89251" lon="-0.05686">
        <ele>1537.1</ele>
        <time>2024-07-25T23:43:31.869Z</time>
      </trkpt>
      <trkpt lat="42.89246" lon="-0.05693">
        <ele>1538.7</ele>
        <time>2024-07-25T23:43:38.273Z</time>
      </trkpt>
      <trkpt lat="42.89238" lon="-0.05696">
        <ele>1538.6</ele>
        <time>2024-07-25T23:43:41.515Z</time>
      </trkpt>
      <trkpt lat="42.89214" lon="-0.05694">
        <ele>1535.1</ele>
        <time>2024-07-25T23:43:50.045Z</time>
      </trkpt>
      <trkpt lat="42.89191" lon="-0.05702">
        <ele>1538.6</ele>
        <time>2024-07-25T23:44:05.884Z</time>
      </trkpt>
      <trkpt lat="42.89172" lon="-0.05714">
        <ele>1540.8</ele>
        <time>2024-07-25T23:44:17.876Z</time>
      </trkpt>
      <trkpt lat="42.89123" lon="-0.05758">
        <ele>1549.4</ele>
        <time>2024-07-25T23:44:56.895Z</time>
      </trkpt>
      <trkpt lat="42.89062" lon="-0.05793">
        <ele>1554.7</ele>
        <time>2024-07-25T23:45:31.664Z</time>
      </trkpt>
      <trkpt lat="42.89013" lon="-0.05806">
        <ele>1558.1</ele>
        <time>2024-07-25T23:45:56.852Z</time>
      </trkpt>
      <trkpt lat="42.89002" lon="-0.05813">
        <ele>1560.4</ele>
        <time>2024-07-25T23:46:06.348Z</time>
      </trkpt>
      <trkpt lat="42.88974" lon="-0.05846">
        <ele>1566.6</ele>
        <time>2024-07-25T23:46:32.964Z</time>
      </trkpt>
      <trkpt lat="42.88964" lon="-0.05852">
        <ele>1567.8</ele>
        <time>2024-07-25T23:46:39.328Z</time>
      </trkpt>
      <trkpt lat="42.88952" lon="-0.05852">
        <ele>1566.5</ele>
        <time>2024-07-25T23:46:43.585Z</time>
      </trkpt>
      <trkpt lat="42.8894" lon="-0.05848">
        <ele>1564.5</ele>
        <time>2024-07-25T23:46:47.967Z</time>
      </trkpt>
      <trkpt lat="42.88928" lon="-0.05847">
        <ele>1564.8</ele>
        <time>2024-07-25T23:46:53.236Z</time>
      </trkpt>
      <trkpt lat="42.88884" lon="-0.05871">
        <ele>1570.3</ele>
        <time>2024-07-25T23:47:21.454Z</time>
      </trkpt>
      <trkpt lat="42.88861" lon="-0.05874">
        <ele>1573.5</ele>
        <time>2024-07-25T23:47:36.373Z</time>
      </trkpt>
      <trkpt lat="42.88843" lon="-0.05874">
        <ele>1574.9</ele>
        <time>2024-07-25T23:47:45.756Z</time>
      </trkpt>
      <trkpt lat="42.88819" lon="-0.05871">
        <ele>1576.8</ele>
        <time>2024-07-25T23:47:58.366Z</time>
      </trkpt>
      <trkpt lat="42.88806" lon="-0.05867">
        <ele>1577.3</ele>
        <time>2024-07-25T23:48:04.447Z</time>
        <extensions>
          <visugpx:TrkExtension xmlns:visugpx="https://www.visugpx.com/editgpx/">
            <visugpx:node>37</visugpx:node>
            </visugpx:TrkExtension>
        </extensions>
      </trkpt>
      <trkpt lat="42.88795" lon="-0.05861">
        <ele>1577.2</ele>
        <time>2024-07-25T23:48:09.127Z</time>
      </trkpt>
      <trkpt lat="42.88784" lon="-0.05858">
        <ele>1578.7</ele>
        <time>2024-07-25T23:48:16.245Z</time>
      </trkpt>
      <trkpt lat="42.88768" lon="-0.05859">
        <ele>1580.4</ele>
        <time>2024-07-25T23:48:25.454Z</time>
      </trkpt>
      <trkpt lat="42.88735" lon="-0.05866">
        <ele>1582.4</ele>
        <time>2024-07-25T23:48:41.849Z</time>
      </trkpt>
      <trkpt lat="42.88727" lon="-0.05871">
        <ele>1583.8</ele>
        <time>2024-07-25T23:48:47.981Z</time>
      </trkpt>
      <trkpt lat="42.88725" lon="-0.0588">
        <ele>1586.4</ele>
        <time>2024-07-25T23:48:59.574Z</time>
        <extensions>
          <visugpx:TrkExtension xmlns:visugpx="https://www.visugpx.com/editgpx/">
            <visugpx:node>38</visugpx:node>
            </visugpx:TrkExtension>
        </extensions>
      </trkpt>
      <trkpt lat="42.88728" lon="-0.05889">
        <ele>1589</ele>
        <time>2024-07-25T23:49:10.898Z</time>
      </trkpt>
      <trkpt lat="42.88737" lon="-0.05891">
        <ele>1589.8</ele>
        <time>2024-07-25T23:49:15.816Z</time>
      </trkpt>
      <trkpt lat="42.8877" lon="-0.05887">
        <ele>1589.1</ele>
        <time>2024-07-25T23:49:28.413Z</time>
      </trkpt>
      <trkpt lat="42.88781" lon="-0.0589">
        <ele>1589.8</ele>
        <time>2024-07-25T23:49:33.966Z</time>
      </trkpt>
      <trkpt lat="42.88802" lon="-0.05906">
        <ele>1591.4</ele>
        <time>2024-07-25T23:49:46.038Z</time>
      </trkpt>
      <trkpt lat="42.88828" lon="-0.05921">
        <ele>1595.6</ele>
        <time>2024-07-25T23:50:04.967Z</time>
      </trkpt>
      <trkpt lat="42.88838" lon="-0.05925">
        <ele>1597.2</ele>
        <time>2024-07-25T23:50:12.079Z</time>
      </trkpt>
      <trkpt lat="42.8887" lon="-0.05924">
        <ele>1595.2</ele>
        <time>2024-07-25T23:50:23.434Z</time>
      </trkpt>
      <trkpt lat="42.88885" lon="-0.05933">
        <ele>1596.6</ele>
        <time>2024-07-25T23:50:32.202Z</time>
      </trkpt>
      <trkpt lat="42.88894" lon="-0.05941">
        <ele>1600.7</ele>
        <time>2024-07-25T23:50:50.586Z</time>
      </trkpt>
      <trkpt lat="42.88904" lon="-0.05943">
        <ele>1603.7</ele>
        <time>2024-07-25T23:51:02.805Z</time>
      </trkpt>
      <trkpt lat="42.88918" lon="-0.05938">
        <ele>1604.8</ele>
        <time>2024-07-25T23:51:10.304Z</time>
      </trkpt>
      <trkpt lat="42.88946" lon="-0.05937">
        <ele>1607.3</ele>
        <time>2024-07-25T23:51:25.490Z</time>
      </trkpt>
      <trkpt lat="42.88964" lon="-0.05932">
        <ele>1608.2</ele>
        <time>2024-07-25T23:51:34.190Z</time>
      </trkpt>
      <trkpt lat="42.89009" lon="-0.05906">
        <ele>1608.9</ele>
        <time>2024-07-25T23:51:54.903Z</time>
      </trkpt>
      <trkpt lat="42.89013" lon="-0.05905">
        <ele>1609</ele>
        <time>2024-07-25T23:51:56.683Z</time>
      </trkpt>
      <trkpt lat="42.89019" lon="-0.05907">
        <ele>1610.4</ele>
        <time>2024-07-25T23:52:02.279Z</time>
      </trkpt>
      <trkpt lat="42.89021" lon="-0.05913">
        <ele>1613.2</ele>
        <time>2024-07-25T23:52:12.558Z</time>
      </trkpt>
      <trkpt lat="42.89019" lon="-0.05922">
        <ele>1617.1</ele>
        <time>2024-07-25T23:52:27.225Z</time>
      </trkpt>
      <trkpt lat="42.89016" lon="-0.05926">
        <ele>1618.2</ele>
        <time>2024-07-25T23:52:31.617Z</time>
        <extensions>
          <visugpx:TrkExtension xmlns:visugpx="https://www.visugpx.com/editgpx/">
            <visugpx:node>39</visugpx:node>
            </visugpx:TrkExtension>
        </extensions>
      </trkpt>
      <trkpt lat="42.89013" lon="-0.05929">
        <ele>1619.1</ele>
        <time>2024-07-25T23:52:35.202Z</time>
      </trkpt>
      <trkpt lat="42.89" lon="-0.05934">
        <ele>1617.9</ele>
        <time>2024-07-25T23:52:39.993Z</time>
      </trkpt>
      <trkpt lat="42.88977" lon="-0.05949">
        <ele>1617.3</ele>
        <time>2024-07-25T23:52:49.615Z</time>
      </trkpt>
      <trkpt lat="42.88929" lon="-0.05983">
        <ele>1619.8</ele>
        <time>2024-07-25T23:53:14.999Z</time>
      </trkpt>
      <trkpt lat="42.88916" lon="-0.05998">
        <ele>1620.5</ele>
        <time>2024-07-25T23:53:22.858Z</time>
      </trkpt>
      <trkpt lat="42.88905" lon="-0.06004">
        <ele>1621.3</ele>
        <time>2024-07-25T23:53:28.823Z</time>
      </trkpt>
      <trkpt lat="42.88867" lon="-0.06006">
        <ele>1621</ele>
        <time>2024-07-25T23:53:43.873Z</time>
      </trkpt>
      <trkpt lat="42.88855" lon="-0.06009">
        <ele>1621.8</ele>
        <time>2024-07-25T23:53:49.977Z</time>
      </trkpt>
      <trkpt lat="42.8885" lon="-0.06021">
        <ele>1623.9</ele>
        <time>2024-07-25T23:53:58.471Z</time>
        <extensions>
          <visugpx:TrkExtension xmlns:visugpx="https://www.visugpx.com/editgpx/">
            <visugpx:node>40</visugpx:node>
            </visugpx:TrkExtension>
        </extensions>
      </trkpt>
      <trkpt lat="42.88853" lon="-0.06032">
        <ele>1626</ele>
        <time>2024-07-25T23:54:06.835Z</time>
      </trkpt>
      <trkpt lat="42.88859" lon="-0.06033">
        <ele>1626.3</ele>
        <time>2024-07-25T23:54:09.703Z</time>
      </trkpt>
      <trkpt lat="42.8888" lon="-0.06023">
        <ele>1624.6</ele>
        <time>2024-07-25T23:54:17.593Z</time>
      </trkpt>
      <trkpt lat="42.88888" lon="-0.06023">
        <ele>1624.8</ele>
        <time>2024-07-25T23:54:21.101Z</time>
      </trkpt>
      <trkpt lat="42.88911" lon="-0.06032">
        <ele>1629.5</ele>
        <time>2024-07-25T23:54:40.332Z</time>
      </trkpt>
      <trkpt lat="42.8892" lon="-0.06031">
        <ele>1630.6</ele>
        <time>2024-07-25T23:54:45.821Z</time>
      </trkpt>
      <trkpt lat="42.88926" lon="-0.06028">
        <ele>1631.1</ele>
        <time>2024-07-25T23:54:49.157Z</time>
      </trkpt>
      <trkpt lat="42.88961" lon="-0.05996">
        <ele>1630.1</ele>
        <time>2024-07-25T23:55:05.050Z</time>
      </trkpt>
      <trkpt lat="42.88972" lon="-0.05996">
        <ele>1631.7</ele>
        <time>2024-07-25T23:55:12.336Z</time>
        <extensions>
          <visugpx:TrkExtension xmlns:visugpx="https://www.visugpx.com/editgpx/">
            <visugpx:node>41</visugpx:node>
            </visugpx:TrkExtension>
        </extensions>
      </trkpt>
      <trkpt lat="42.88975" lon="-0.05996">
        <ele>1633.7</ele>
        <time>2024-07-25T23:55:18.721Z</time>
      </trkpt>
      <trkpt lat="42.88979" lon="-0.06001">
        <ele>1638</ele>
        <time>2024-07-25T23:55:30.266Z</time>
      </trkpt>
      <trkpt lat="42.88977" lon="-0.06014">
        <ele>1641.4</ele>
        <time>2024-07-25T23:55:44.900Z</time>
      </trkpt>
      <trkpt lat="42.88969" lon="-0.06022">
        <ele>1640.1</ele>
        <time>2024-07-25T23:55:48.419Z</time>
      </trkpt>
      <trkpt lat="42.88953" lon="-0.06033">
        <ele>1639.4</ele>
        <time>2024-07-25T23:55:54.877Z</time>
      </trkpt>
      <trkpt lat="42.88938" lon="-0.06048">
        <ele>1640.4</ele>
        <time>2024-07-25T23:56:03.824Z</time>
      </trkpt>
      <trkpt lat="42.88929" lon="-0.06064">
        <ele>1642.7</ele>
        <time>2024-07-25T23:56:13.990Z</time>
      </trkpt>
      <trkpt lat="42.88919" lon="-0.06072">
        <ele>1641.6</ele>
        <time>2024-07-25T23:56:18.101Z</time>
      </trkpt>
      <trkpt lat="42.88886" lon="-0.06084">
        <ele>1644</ele>
        <time>2024-07-25T23:56:35.460Z</time>
      </trkpt>
      <trkpt lat="42.88827" lon="-0.06114">
        <ele>1649.9</ele>
        <time>2024-07-25T23:57:10.124Z</time>
      </trkpt>
      <trkpt lat="42.88811" lon="-0.06121">
        <ele>1651.8</ele>
        <time>2024-07-25T23:57:20.025Z</time>
      </trkpt>
      <trkpt lat="42.88798" lon="-0.06121">
        <ele>1652.2</ele>
        <time>2024-07-25T23:57:25.829Z</time>
      </trkpt>
      <trkpt lat="42.88785" lon="-0.06116">
        <ele>1652.1</ele>
        <time>2024-07-25T23:57:31.182Z</time>
      </trkpt>
      <trkpt lat="42.88743" lon="-0.06111">
        <ele>1656.2</ele>
        <time>2024-07-25T23:57:54.681Z</time>
      </trkpt>
      <trkpt lat="42.88737" lon="-0.06107">
        <ele>1657</ele>
        <time>2024-07-25T23:57:58.711Z</time>
      </trkpt>
      <trkpt lat="42.88736" lon="-0.06101">
        <ele>1656.9</ele>
        <time>2024-07-25T23:58:00.420Z</time>
        <extensions>
          <visugpx:TrkExtension xmlns:visugpx="https://www.visugpx.com/editgpx/">
            <visugpx:node>42</visugpx:node>
            </visugpx:TrkExtension>
        </extensions>
      </trkpt>
      <trkpt lat="42.88734" lon="-0.06095">
        <ele>1657</ele>
        <time>2024-07-25T23:58:02.508Z</time>
      </trkpt>
      <trkpt lat="42.88737" lon="-0.06068">
        <ele>1655.4</ele>
        <time>2024-07-25T23:58:09.606Z</time>
      </trkpt>
      <trkpt lat="42.88736" lon="-0.0605">
        <ele>1655</ele>
        <time>2024-07-25T23:58:14.500Z</time>
      </trkpt>
      <trkpt lat="42.88732" lon="-0.06045">
        <ele>1655.5</ele>
        <time>2024-07-25T23:58:17.471Z</time>
      </trkpt>
      <trkpt lat="42.88725" lon="-0.06045">
        <ele>1657.8</ele>
        <time>2024-07-25T23:58:27.132Z</time>
      </trkpt>
      <trkpt lat="42.8872" lon="-0.0605">
        <ele>1660.8</ele>
        <time>2024-07-25T23:58:40.325Z</time>
        <extensions>
          <visugpx:TrkExtension xmlns:visugpx="https://www.visugpx.com/editgpx/">
            <visugpx:node>43</visugpx:node>
            </visugpx:TrkExtension>
        </extensions>
      </trkpt>
      <trkpt lat="42.88718" lon="-0.06058">
        <ele>1662.9</ele>
        <time>2024-07-25T23:58:49.252Z</time>
      </trkpt>
      <trkpt lat="42.88718" lon="-0.0609">
        <ele>1662.2</ele>
        <time>2024-07-25T23:58:57.938Z</time>
      </trkpt>
      <trkpt lat="42.88711" lon="-0.06102">
        <ele>1663.4</ele>
        <time>2024-07-25T23:59:04.414Z</time>
      </trkpt>
      <trkpt lat="42.88702" lon="-0.06112">
        <ele>1664.4</ele>
        <time>2024-07-25T23:59:10.640Z</time>
      </trkpt>
      <trkpt lat="42.88678" lon="-0.06125">
        <ele>1669.1</ele>
        <time>2024-07-25T23:59:30.267Z</time>
      </trkpt>
      <trkpt lat="42.88673" lon="-0.06133">
        <ele>1669.4</ele>
        <time>2024-07-25T23:59:33.799Z</time>
      </trkpt>
      <trkpt lat="42.88678" lon="-0.06148">
        <ele>1669.9</ele>
        <time>2024-07-25T23:59:39.378Z</time>
      </trkpt>
      <trkpt lat="42.88686" lon="-0.06152">
        <ele>1669.5</ele>
        <time>2024-07-25T23:59:42.401Z</time>
      </trkpt>
      <trkpt lat="42.88714" lon="-0.06156">
        <ele>1667.5</ele>
        <time>2024-07-25T23:59:52.388Z</time>
      </trkpt>
      <trkpt lat="42.88728" lon="-0.06166">
        <ele>1667.8</ele>
        <time>2024-07-25T23:59:59.184Z</time>
      </trkpt>
      <trkpt lat="42.88729" lon="-0.06174">
        <ele>1668.8</ele>
        <time>2024-07-26T00:00:03.472Z</time>
      </trkpt>
      <trkpt lat="42.88727" lon="-0.06183">
        <ele>1670.5</ele>
        <time>2024-07-26T00:00:10.242Z</time>
      </trkpt>
      <trkpt lat="42.88722" lon="-0.06187">
        <ele>1672</ele>
        <time>2024-07-26T00:00:16.226Z</time>
      </trkpt>
      <trkpt lat="42.88717" lon="-0.06187">
        <ele>1672.8</ele>
        <time>2024-07-26T00:00:19.722Z</time>
        <extensions>
          <visugpx:TrkExtension xmlns:visugpx="https://www.visugpx.com/editgpx/">
            <visugpx:node>44</visugpx:node>
            </visugpx:TrkExtension>
        </extensions>
      </trkpt>
      <trkpt lat="42.8869" lon="-0.06179">
        <ele>1675.2</ele>
        <time>2024-07-26T00:00:34.579Z</time>
      </trkpt>
      <trkpt lat="42.88645" lon="-0.06162">
        <ele>1677.7</ele>
        <time>2024-07-26T00:00:57.027Z</time>
      </trkpt>
      <trkpt lat="42.88636" lon="-0.06156">
        <ele>1679</ele>
        <time>2024-07-26T00:01:03.293Z</time>
      </trkpt>
      <trkpt lat="42.88632" lon="-0.06143">
        <ele>1679.6</ele>
        <time>2024-07-26T00:01:08.335Z</time>
      </trkpt>
      <trkpt lat="42.88633" lon="-0.06122">
        <ele>1682</ele>
        <time>2024-07-26T00:01:18.941Z</time>
      </trkpt>
      <trkpt lat="42.88638" lon="-0.06106">
        <ele>1683.4</ele>
        <time>2024-07-26T00:01:26.366Z</time>
      </trkpt>
      <trkpt lat="42.88648" lon="-0.06091">
        <ele>1684.3</ele>
        <time>2024-07-26T00:01:33.677Z</time>
      </trkpt>
      <trkpt lat="42.88664" lon="-0.06078">
        <ele>1684.1</ele>
        <time>2024-07-26T00:01:40.983Z</time>
      </trkpt>
      <trkpt lat="42.88673" lon="-0.06068">
        <ele>1682</ele>
        <time>2024-07-26T00:01:45.100Z</time>
      </trkpt>
      <trkpt lat="42.88675" lon="-0.06058">
        <ele>1682.2</ele>
        <time>2024-07-26T00:01:48.443Z</time>
      </trkpt>
      <trkpt lat="42.88672" lon="-0.06048">
        <ele>1682.2</ele>
        <time>2024-07-26T00:01:51.653Z</time>
      </trkpt>
      <trkpt lat="42.88665" lon="-0.06045">
        <ele>1684.7</ele>
        <time>2024-07-26T00:02:02.302Z</time>
        <extensions>
          <visugpx:TrkExtension xmlns:visugpx="https://www.visugpx.com/editgpx/">
            <visugpx:node>45</visugpx:node>
            </visugpx:TrkExtension>
        </extensions>
      </trkpt>
      <trkpt lat="42.88656" lon="-0.06047">
        <ele>1687.1</ele>
        <time>2024-07-26T00:02:11.889Z</time>
      </trkpt>
      <trkpt lat="42.88625" lon="-0.0608">
        <ele>1693</ele>
        <time>2024-07-26T00:02:38.378Z</time>
      </trkpt>
      <trkpt lat="42.88599" lon="-0.06111">
        <ele>1694.1</ele>
        <time>2024-07-26T00:02:53.848Z</time>
      </trkpt>
      <trkpt lat="42.88565" lon="-0.06139">
        <ele>1698.3</ele>
        <time>2024-07-26T00:03:16.650Z</time>
      </trkpt>
      <trkpt lat="42.8854" lon="-0.06162">
        <ele>1701.1</ele>
        <time>2024-07-26T00:03:33.201Z</time>
      </trkpt>
      <trkpt lat="42.88529" lon="-0.06177">
        <ele>1702.9</ele>
        <time>2024-07-26T00:03:42.451Z</time>
      </trkpt>
      <trkpt lat="42.88516" lon="-0.06212">
        <ele>1705.3</ele>
        <time>2024-07-26T00:03:57.734Z</time>
      </trkpt>
      <trkpt lat="42.88509" lon="-0.06223">
        <ele>1707.2</ele>
        <time>2024-07-26T00:04:05.724Z</time>
      </trkpt>
      <trkpt lat="42.88504" lon="-0.06225">
        <ele>1708.6</ele>
        <time>2024-07-26T00:04:11.327Z</time>
        <extensions>
          <visugpx:TrkExtension xmlns:visugpx="https://www.visugpx.com/editgpx/">
            <visugpx:node>46</visugpx:node>
            </visugpx:TrkExtension>
        </extensions>
      </trkpt>
      <trkpt lat="42.88502" lon="-0.06226">
        <ele>1709</ele>
        <time>2024-07-26T00:04:12.983Z</time>
      </trkpt>
      <trkpt lat="42.88497" lon="-0.06218">
        <ele>1709.5</ele>
        <time>2024-07-26T00:04:16.829Z</time>
      </trkpt>
      <trkpt lat="42.88499" lon="-0.062">
        <ele>1709.2</ele>
        <time>2024-07-26T00:04:21.880Z</time>
      </trkpt>
      <trkpt lat="42.88506" lon="-0.06181">
        <ele>1708.1</ele>
        <time>2024-07-26T00:04:27.408Z</time>
      </trkpt>
      <trkpt lat="42.88508" lon="-0.06163">
        <ele>1708.7</ele>
        <time>2024-07-26T00:04:33.644Z</time>
      </trkpt>
      <trkpt lat="42.88505" lon="-0.06142">
        <ele>1711.5</ele>
        <time>2024-07-26T00:04:45.405Z</time>
        <extensions>
          <visugpx:TrkExtension xmlns:visugpx="https://www.visugpx.com/editgpx/">
            <visugpx:node>47</visugpx:node>
            </visugpx:TrkExtension>
        </extensions>
      </trkpt>
    </trkseg>
  </trk>
</gpx>